Observation data for Goodnight on 05/16/2018      Previous  Date  Next       Current Mesonet Observations  Soil Data  Daily Summary Page  Observations in Plain Language
KGO1 160500Z 08007KT 18/13 A3002 RMK A01 T01750127  RH  073%=      5-min Rain = 0
KGO1 160501Z 09007KT 18/13 A3002 RMK A01 T01760129  RH  074%=      5-min Rain = 0
KGO1 160502Z 11007KT 17/13 A3001 RMK A01 T01740130  RH  076%=      5-min Rain = 0
KGO1 160503Z 11008KT 17/13 A3001 RMK A01 T01710132  RH  078%=      5-min Rain = 0
KGO1 160504Z 11008KT 17/13 A3001 RMK A01 T01680134  RH  080%=      5-min Rain = 0
KGO1 160505Z 11007KT 17/13 A3001 RMK A01 T01660134  RH  081%=      5-min Rain = 0
KGO1 160506Z 11006KT 17/13 A3001 RMK A01 T01650133  RH  081%=      5-min Rain = 0
KGO1 160507Z 11005KT 17/13 A3001 RMK A01 T01650132  RH  081%=      5-min Rain = 0
KGO1 160508Z 12005KT 17/13 A3001 RMK A01 T01650132  RH  081%=      5-min Rain = 0
KGO1 160509Z 13005KT 17/13 A3001 RMK A01 T01650132  RH  081%=      5-min Rain = 0
KGO1 160510Z 13005KT 17/13 A3001 RMK A01 T01650131  RH  080%=      5-min Rain = 0
KGO1 160511Z 14005KT 17/13 A3001 RMK A01 T01660131  RH  080%=      5-min Rain = 0
KGO1 160512Z 15005KT 17/13 A3001 RMK A01 T01660131  RH  080%=      5-min Rain = 0
KGO1 160513Z 15006KT 16/13 A3001 RMK A01 T01640130  RH  080%=      5-min Rain = 0
KGO1 160514Z 15006KT 16/13 A3001 RMK A01 T01630130  RH  080%=      5-min Rain = 0
KGO1 160515Z 15007KT 16/13 A30 RMK A01 T01620129  RH  081%=      5-min Rain = 0
KGO1 160516Z 15007KT 16/13 A30 RMK A01 T01620129  RH  081%=      5-min Rain = 0
KGO1 160517Z 15007KT 16/13 A30 RMK A01 T01610128  RH  080%=      5-min Rain = 0
KGO1 160518Z 16007KT 16/13 A30 RMK A01 T01610127  RH  080%=      5-min Rain = 0
KGO1 160519Z 16008KT 16/13 A30 RMK A01 T01610126  RH  080%=      5-min Rain = 0
KGO1 160520Z 16009KT 16/13 A30 RMK A01 T01610126  RH  079%=      5-min Rain = 0
KGO1 160521Z 17010KT 16/13 A30 RMK A01 T01620126  RH  079%=      5-min Rain = 0
KGO1 160522Z 18010KT 16/12 A30 RMK A01 T01620124  RH  078%=      5-min Rain = 0
KGO1 160523Z 18009KT 16/13 A3001 RMK A01 T01630125  RH  078%=      5-min Rain = 0
KGO1 160524Z 18008KT 16/13 A3001 RMK A01 T01630125  RH  078%=      5-min Rain = 0
KGO1 160525Z 18009KT 16/13 A3001 RMK A01 T01640127  RH  079%=      5-min Rain = 0
KGO1 160526Z 19009KT 16/13 A3001 RMK A01 T01630127  RH  079%=      5-min Rain = 0
KGO1 160527Z 19008KT 16/13 A3001 RMK A01 T01620128  RH  080%=      5-min Rain = 0
KGO1 160528Z 19008KT 16/13 A3001 RMK A01 T01620127  RH  080%=      5-min Rain = 0
KGO1 160529Z 20007KT 16/13 A3001 RMK A01 T01620127  RH  079%=      5-min Rain = 0
KGO1 160530Z 20008KT 16/13 A3001 RMK A01 T01620127  RH  080%=      5-min Rain = 0
KGO1 160531Z 20007KT 16/13 A3002 RMK A01 T01620126  RH  079%=      5-min Rain = 0
KGO1 160532Z 21007KT 16/13 A3002 RMK A01 T01620125  RH  079%=      5-min Rain = 0
KGO1 160533Z 21007KT 16/13 A3002 RMK A01 T01620126  RH  079%=      5-min Rain = 0
KGO1 160534Z 22008KT 16/13 A3002 RMK A01 T01620126  RH  079%=      5-min Rain = 0
KGO1 160535Z 22008KT 16/13 A3002 RMK A01 T01620125  RH  079%=      5-min Rain = 0
KGO1 160536Z 23007KT 16/12 A3002 RMK A01 T01640124  RH  077%=      5-min Rain = 0
KGO1 160537Z 24006KT 17/12 A3002 RMK A01 T01650124  RH  077%=      5-min Rain = 0
KGO1 160538Z 25005KT 17/13 A3002 RMK A01 T01650127  RH  078%=      5-min Rain = 0
KGO1 160539Z 25006KT 16/13 A3002 RMK A01 T01610126  RH  080%=      5-min Rain = 0
KGO1 160540Z 25006KT 16/13 A3002 RMK A01 T01580125  RH  081%=      5-min Rain = 0
KGO1 160541Z 23006KT 16/12 A3002 RMK A01 T01570123  RH  080%=      5-min Rain = 0
KGO1 160542Z 23006KT 16/12 A3002 RMK A01 T01580121  RH  078%=      5-min Rain = 0
KGO1 160543Z 24006KT 16/12 A3002 RMK A01 T01610120  RH  077%=      5-min Rain = 0
KGO1 160544Z 25006KT 16/12 A3002 RMK A01 T01620121  RH  077%=      5-min Rain = 0
KGO1 160545Z 25007KT 16/12 A3002 RMK A01 T01610122  RH  078%=      5-min Rain = 0
KGO1 160546Z 24007KT 16/12 A3002 RMK A01 T01600123  RH  079%=      5-min Rain = 0
KGO1 160547Z 25006KT 16/12 A3002 RMK A01 T01590123  RH  079%=      5-min Rain = 0
KGO1 160548Z 26007KT 16/12 A3002 RMK A01 T01580124  RH  080%=      5-min Rain = 0
KGO1 160549Z 26008KT 16/12 A3003 RMK A01 T01570123  RH  080%=      5-min Rain = 0
KGO1 160550Z 26009KT 16/12 A3003 RMK A01 T01560123  RH  081%=      5-min Rain = 0
KGO1 160551Z 26009KT 16/12 A3002 RMK A01 T01560123  RH  081%=      5-min Rain = 0
KGO1 160552Z 26010KT 16/12 A3002 RMK A01 T01550123  RH  081%=      5-min Rain = 0
KGO1 160553Z 26009KT 15/12 A3002 RMK A01 T01540123  RH  082%=      5-min Rain = 0
KGO1 160554Z 26009KT 15/12 A3002 RMK A01 T01540122  RH  082%=      5-min Rain = 0
KGO1 160555Z 27008KT 15/12 A3002 RMK A01 T01540122  RH  082%=      5-min Rain = 0
KGO1 160556Z 27007KT 15/12 A3002 RMK A01 T01530122  RH  081%=      5-min Rain = 0
KGO1 160557Z 27008KT 15/12 A3003 RMK A01 T01530121  RH  081%=      5-min Rain = 0
KGO1 160558Z 28008KT 15/12 A3003 RMK A01 T01530121  RH  081%=      5-min Rain = 0
KGO1 160559Z 28008KT 15/12 A3003 RMK A01 T01530121  RH  081%=      5-min Rain = 0
KGO1 160600Z 28009KT 15/12 A3003 RMK A01 T01540121  RH  081%=      5-min Rain = 0
KGO1 160601Z 28009KT 15/12 A3003 RMK A01 T01540120  RH  080%=      5-min Rain = 0
KGO1 160602Z 28010KT 15/12 A3003 RMK A01 T01540120  RH  080%=      5-min Rain = 0
KGO1 160603Z 28010KT 15/12 A3003 RMK A01 T01540120  RH  080%=      5-min Rain = 0
KGO1 160604Z 28011KT 15/12 A3003 RMK A01 T01540120  RH  080%=      5-min Rain = 0
KGO1 160605Z 28011KT 16/12 A3003 RMK A01 T01550120  RH  080%=      5-min Rain = 0
KGO1 160606Z 28010KT 16/12 A3003 RMK A01 T01550120  RH  079%=      5-min Rain = 0
KGO1 160607Z 28010KT 16/12 A3003 RMK A01 T01550119  RH  079%=      5-min Rain = 0
KGO1 160608Z 28009KT 16/12 A3003 RMK A01 T01560119  RH  079%=      5-min Rain = 0
KGO1 160609Z 28010KT 16/12 A3003 RMK A01 T01560119  RH  079%=      5-min Rain = 0
KGO1 160610Z 28010KT 16/12 A3003 RMK A01 T01560120  RH  079%=      5-min Rain = 0
KGO1 160611Z 29010KT 16/12 A3003 RMK A01 T01560120  RH  079%=      5-min Rain = 0
KGO1 160612Z 29010KT 16/12 A3004 RMK A01 T01560120  RH  079%=      5-min Rain = 0
KGO1 160613Z 29012KT 16/12 A3004 RMK A01 T01560120  RH  079%=      5-min Rain = 0
KGO1 160614Z 29011KT 16/12 A3004 RMK A01 T01570119  RH  078%=      5-min Rain = 0
KGO1 160615Z 29010KT 16/12 A3004 RMK A01 T01580119  RH  078%=      5-min Rain = 0
KGO1 160616Z 30009KT 16/12 A3004 RMK A01 T01580119  RH  078%=      5-min Rain = 0
KGO1 160617Z 30009KT 16/12 A3004 RMK A01 T01580119  RH  077%=      5-min Rain = 0
KGO1 160618Z 32008KT 16/12 A3004 RMK A01 T01590119  RH  077%=      5-min Rain = 0
KGO1 160619Z 35009KT 16/12 A3005 RMK A01 T01590121  RH  078%=      5-min Rain = 0
KGO1 160620Z 00011KT 16/12 A3005 RMK A01 T01570121  RH  079%=      5-min Rain = 0
KGO1 160621Z 00010KT 15/12 A3005 RMK A01 T01540119  RH  079%=      5-min Rain = 0
KGO1 160622Z 00012KT 15/12 A3006 RMK A01 T01530119  RH  080%=      5-min Rain = 0
KGO1 160623Z 00008KT 15/12 A3006 RMK A01 T01520119  RH  080%=      5-min Rain = 0
KGO1 160624Z 01008KT 15/12 A3006 RMK A01 T01510119  RH  081%=      5-min Rain = 0
KGO1 160625Z 00010KT 15/12 A3006 RMK A01 T01500118  RH  081%=      5-min Rain = 0
KGO1 160626Z 01010KT 15/12 A3006 RMK A01 T01500118  RH  081%=      5-min Rain = 0
KGO1 160627Z 01010KT 15/12 A3006 RMK A01 T01510117  RH  080%=      5-min Rain = 0
KGO1 160628Z 01009KT 15/12 A3007 RMK A01 T01530117  RH  079%=      5-min Rain = 0
KGO1 160629Z 01009KT 15/12 A3007 RMK A01 T01530117  RH  079%=      5-min Rain = 0
KGO1 160630Z 02010KT 15/12 A3007 RMK A01 T01540117  RH  078%=      5-min Rain = 0
KGO1 160631Z 01009KT 16/12 A3007 RMK A01 T01560116  RH  077%=      5-min Rain = 0
KGO1 160632Z 01008KT 16/12 A3007 RMK A01 T01570116  RH  077%=      5-min Rain = 0
KGO1 160633Z 01008KT 16/12 A3007 RMK A01 T01580116  RH  076%=      5-min Rain = 0
KGO1 160634Z 01006KT 16/12 A3007 RMK A01 T01580116  RH  076%=      5-min Rain = 0
KGO1 160635Z 01007KT 16/12 A3007 RMK A01 T01580117  RH  077%=      5-min Rain = 0
KGO1 160636Z 01007KT 16/12 A3007 RMK A01 T01570117  RH  077%=      5-min Rain = 0
KGO1 160637Z 00007KT 16/12 A3006 RMK A01 T01560117  RH  078%=      5-min Rain = 0
KGO1 160638Z 00007KT 16/12 A3006 RMK A01 T01560118  RH  078%=      5-min Rain = 0
KGO1 160639Z 00006KT 16/12 A3006 RMK A01 T01550118  RH  078%=      5-min Rain = 0
KGO1 160640Z 00006KT 16/12 A3006 RMK A01 T01550118  RH  079%=      5-min Rain = 0
KGO1 160641Z 01005KT 15/12 A3006 RMK A01 T01540118  RH  079%=      5-min Rain = 0
KGO1 160642Z 01004KT 15/12 A3006 RMK A01 T01530118  RH  080%=      5-min Rain = 0
KGO1 160643Z 02002KT 15/12 A3007 RMK A01 T01530118  RH  080%=      5-min Rain = 0
KGO1 160644Z 03000KT 15/12 A3007 RMK A01 T01520117  RH  080%=      5-min Rain = 0
KGO1 160645Z 21002KT 15/12 A3007 RMK A01 T01520118  RH  080%=      5-min Rain = 0
KGO1 160646Z 21006KT 15/12 A3007 RMK A01 T01510118  RH  081%=      5-min Rain = 0
KGO1 160647Z 21010KT 15/12 A3008 RMK A01 T01490119  RH  082%=      5-min Rain = 0
KGO1 160648Z 21012KT 15/12 A3008 RMK A01 T01470119  RH  083%=      5-min Rain = 0
KGO1 160649Z 20012KT 15/12 A3008 RMK A01 T01470119  RH  083%=      5-min Rain = 0
KGO1 160650Z 20011KT 15/12 A3008 RMK A01 T01480119  RH  083%=      5-min Rain = 0
KGO1 160651Z 20010KT 15/12 A3008 RMK A01 T01490119  RH  082%=      5-min Rain = 0
KGO1 160652Z 21010KT 15/12 A3008 RMK A01 T01500119  RH  081%=      5-min Rain = 0
KGO1 160653Z 21010KT 15/12 A3008 RMK A01 T01510118  RH  081%=      5-min Rain = 0
KGO1 160654Z 21011KT 15/12 A3008 RMK A01 T01510117  RH  080%=      5-min Rain = 0
KGO1 160655Z 21010KT 15/12 A3008 RMK A01 T01520118  RH  080%=      5-min Rain = 0
KGO1 160656Z 21012KT 15/12 A3008 RMK A01 T01520118  RH  080%=      5-min Rain = 0
KGO1 160657Z 22010KT 15/12 A3008 RMK A01 T01530117  RH  079%=      5-min Rain = 0
KGO1 160658Z 22008KT 15/12 A3007 RMK A01 T01540117  RH  078%=      5-min Rain = 0
KGO1 160659Z 23007KT 16/12 A3007 RMK A01 T01550116  RH  078%=      5-min Rain = 0
KGO1 160700Z 23010KT 15/12 A3007 RMK A01 T01540116  RH  078%=      5-min Rain = 0
KGO1 160701Z 22014KT 15/12 A3008 RMK A01 T01540116  RH  078%=      5-min Rain = 0
KGO1 160702Z 22015KT 15/12 A3008 RMK A01 T01530116  RH  079%=      5-min Rain = 0
KGO1 160703Z 23014KT 15/12 A3008 RMK A01 T01540115  RH  078%=      5-min Rain = 0
KGO1 160704Z 25010KT 16/11 A3008 RMK A01 T01580112  RH  074%=      5-min Rain = 0
KGO1 160705Z 28008KT 16/11 A3007 RMK A01 T01630109  RH  071%=      5-min Rain = 0
KGO1 160706Z 29009KT 17/11 A3006 RMK A01 T01680108  RH  067%=      5-min Rain = 0
KGO1 160707Z 28008KT 17/11 A3007 RMK A01 T01710107  RH  066%=      5-min Rain = 0
KGO1 160708Z 25009KT 17/11 A3008 RMK A01 T01720111  RH  067%=      5-min Rain = 0
KGO1 160709Z 24009KT 17/11 A3008 RMK A01 T01670113  RH  070%=      5-min Rain = 0
KGO1 160710Z 24008KT 16/11 A3009 RMK A01 T01630113  RH  072%=      5-min Rain = 0
KGO1 160711Z 25007KT 16/11 A3008 RMK A01 T01600114  RH  074%=      5-min Rain = 0
KGO1 160712Z 27006KT 16/11 A3008 RMK A01 T01580114  RH  075%=      5-min Rain = 0
KGO1 160713Z 28005KT 16/11 A3008 RMK A01 T01570113  RH  075%=      5-min Rain = 0
KGO1 160714Z 29006KT 16/11 A3008 RMK A01 T01570113  RH  075%=      5-min Rain = 0
KGO1 160715Z 28005KT 16/11 A3009 RMK A01 T01570113  RH  075%=      5-min Rain = 0
KGO1 160716Z 28004KT 16/11 A3009 RMK A01 T01550113  RH  076%=      5-min Rain = 0
KGO1 160717Z 28005KT 15/11 A3009 RMK A01 T01540114  RH  077%=      5-min Rain = 0
KGO1 160718Z 29005KT 15/11 A3009 RMK A01 T01540114  RH  077%=      5-min Rain = 0
KGO1 160719Z 30005KT 15/11 A3009 RMK A01 T01540114  RH  077%=      5-min Rain = 0
KGO1 160720Z 32005KT 15/11 A3008 RMK A01 T01540114  RH  077%=      5-min Rain = 0
KGO1 160721Z 33006KT 15/11 A3008 RMK A01 T01530113  RH  077%=      5-min Rain = 0
KGO1 160722Z 34006KT 15/11 A3008 RMK A01 T01530112  RH  076%=      5-min Rain = 0
KGO1 160723Z 35007KT 15/11 A3008 RMK A01 T01530112  RH  076%=      5-min Rain = 0
KGO1 160724Z 35007KT 15/11 A3008 RMK A01 T01540111  RH  075%=      5-min Rain = 0
KGO1 160725Z 35006KT 16/11 A3008 RMK A01 T01550112  RH  075%=      5-min Rain = 0
KGO1 160726Z 35006KT 16/11 A3008 RMK A01 T01550112  RH  075%=      5-min Rain = 0
KGO1 160727Z 35007KT 16/11 A3008 RMK A01 T01550112  RH  076%=      5-min Rain = 0
KGO1 160728Z 36007KT 16/11 A3008 RMK A01 T01550111  RH  075%=      5-min Rain = 0
KGO1 160729Z 00007KT 16/11 A3008 RMK A01 T01560110  RH  074%=      5-min Rain = 0
KGO1 160730Z 00007KT 16/11 A3007 RMK A01 T01570109  RH  073%=      5-min Rain = 0
KGO1 160731Z 00007KT 16/11 A3007 RMK A01 T01590108  RH  072%=      5-min Rain = 0
KGO1 160732Z 00007KT 16/11 A3007 RMK A01 T01600109  RH  071%=      5-min Rain = 0
KGO1 160733Z 35007KT 16/11 A3007 RMK A01 T01610109  RH  071%=      5-min Rain = 0
KGO1 160734Z 35007KT 16/11 A3007 RMK A01 T01610109  RH  071%=      5-min Rain = 0
KGO1 160735Z 35008KT 16/11 A3007 RMK A01 T01610109  RH  071%=      5-min Rain = 0
KGO1 160736Z 36008KT 16/11 A3007 RMK A01 T01610110  RH  071%=      5-min Rain = 0
KGO1 160737Z 35008KT 16/11 A3007 RMK A01 T01600110  RH  072%=      5-min Rain = 0
KGO1 160738Z 35008KT 16/11 A3007 RMK A01 T01600109  RH  072%=      5-min Rain = 0
KGO1 160739Z 35007KT 16/11 A3007 RMK A01 T01600109  RH  072%=      5-min Rain = 0
KGO1 160740Z 35007KT 16/11 A3007 RMK A01 T01600109  RH  071%=      5-min Rain = 0
KGO1 160741Z 35008KT 16/11 A3007 RMK A01 T01600107  RH  071%=      5-min Rain = 0
KGO1 160742Z 34007KT 16/11 A3008 RMK A01 T01610107  RH  070%=      5-min Rain = 0
KGO1 160743Z 34008KT 16/11 A3008 RMK A01 T01610106  RH  070%=      5-min Rain = 0
KGO1 160744Z 34008KT 16/10 A3008 RMK A01 T01620103  RH  068%=      5-min Rain = 0
KGO1 160745Z 34008KT 16/10 A3008 RMK A01 T01630104  RH  068%=      5-min Rain = 0
KGO1 160746Z 34007KT 16/10 A3008 RMK A01 T01630104  RH  068%=      5-min Rain = 0
KGO1 160747Z 34007KT 16/10 A3008 RMK A01 T01630104  RH  068%=      5-min Rain = 0
KGO1 160748Z 34006KT 16/10 A3008 RMK A01 T01620104  RH  068%=      5-min Rain = 0
KGO1 160749Z 34006KT 16/10 A3008 RMK A01 T01620103  RH  068%=      5-min Rain = 0
KGO1 160750Z 34006KT 16/10 A3008 RMK A01 T01620102  RH  067%=      5-min Rain = 0
KGO1 160751Z 35006KT 16/10 A3008 RMK A01 T01630101  RH  067%=      5-min Rain = 0
KGO1 160752Z 35006KT 16/10 A3008 RMK A01 T01630101  RH  066%=      5-min Rain = 0
KGO1 160753Z 35006KT 16/10 A3008 RMK A01 T01640102  RH  067%=      5-min Rain = 0
KGO1 160754Z 35006KT 16/10 A3007 RMK A01 T01620102  RH  067%=      5-min Rain = 0
KGO1 160755Z 35006KT 16/10 A3007 RMK A01 T01610102  RH  068%=      5-min Rain = 0
KGO1 160756Z 35006KT 16/10 A3007 RMK A01 T01600102  RH  068%=      5-min Rain = 0
KGO1 160757Z 36006KT 16/10 A3007 RMK A01 T01590102  RH  069%=      5-min Rain = 0
KGO1 160758Z 01005KT 16/10 A3007 RMK A01 T01590102  RH  069%=      5-min Rain = 0
KGO1 160759Z 00005KT 16/10 A3007 RMK A01 T01570102  RH  070%=      5-min Rain = 0
KGO1 160800Z 35005KT 16/10 A3007 RMK A01 T01570102  RH  070%=      5-min Rain = 0
KGO1 160801Z 34005KT 16/10 A3007 RMK A01 T01560102  RH  070%=      5-min Rain = 0
KGO1 160802Z 34004KT 16/10 A3007 RMK A01 T01570103  RH  070%=      5-min Rain = 0
KGO1 160803Z 31003KT 16/10 A3007 RMK A01 T01560102  RH  070%=      5-min Rain = 0
KGO1 160804Z 31004KT 16/10 A3007 RMK A01 T01560102  RH  070%=      5-min Rain = 0
KGO1 160805Z 32004KT 16/10 A3007 RMK A01 T01570102  RH  070%=      5-min Rain = 0
KGO1 160806Z 32005KT 16/10 A3007 RMK A01 T01560102  RH  070%=      5-min Rain = 0
KGO1 160807Z 32006KT 16/10 A3007 RMK A01 T01560103  RH  071%=      5-min Rain = 0
KGO1 160808Z 33006KT 16/10 A3007 RMK A01 T01560104  RH  071%=      5-min Rain = 0
KGO1 160809Z 34005KT 16/10 A3007 RMK A01 T01550104  RH  072%=      5-min Rain = 0
KGO1 160810Z 32005KT 15/10 A3007 RMK A01 T01530104  RH  072%=      5-min Rain = 0
KGO1 160811Z 33006KT 15/11 A3007 RMK A01 T01520105  RH  073%=      5-min Rain = 0
KGO1 160812Z 32005KT 15/11 A3007 RMK A01 T01510105  RH  074%=      5-min Rain = 0
KGO1 160813Z 33005KT 15/11 A3007 RMK A01 T01500105  RH  074%=      5-min Rain = 0
KGO1 160814Z 35006KT 15/11 A3007 RMK A01 T01500105  RH  074%=      5-min Rain = 0
KGO1 160815Z 01008KT 15/10 A3007 RMK A01 T01490103  RH  074%=      5-min Rain = 0
KGO1 160816Z 36008KT 15/10 A3007 RMK A01 T01470103  RH  075%=      5-min Rain = 0
KGO1 160817Z 36008KT 15/10 A3007 RMK A01 T01460103  RH  075%=      5-min Rain = 0
KGO1 160818Z 36007KT 15/10 A3007 RMK A01 T01470103  RH  075%=      5-min Rain = 0
KGO1 160819Z 36006KT 15/10 A3007 RMK A01 T01490104  RH  075%=      5-min Rain = 0
KGO1 160820Z 36006KT 15/10 A3007 RMK A01 T01490104  RH  075%=      5-min Rain = 0
KGO1 160821Z 35006KT 15/11 A3007 RMK A01 T01490105  RH  075%=      5-min Rain = 0
KGO1 160822Z 36006KT 15/11 A3007 RMK A01 T01490105  RH  075%=      5-min Rain = 0
KGO1 160823Z 00006KT 15/10 A3007 RMK A01 T01490104  RH  075%=      5-min Rain = 0
KGO1 160824Z 00006KT 15/10 A3007 RMK A01 T01490104  RH  075%=      5-min Rain = 0
KGO1 160825Z 00005KT 15/10 A3007 RMK A01 T01490104  RH  074%=      5-min Rain = 0
KGO1 160826Z 01006KT 15/10 A3007 RMK A01 T01480104  RH  074%=      5-min Rain = 0
KGO1 160827Z 00006KT 15/10 A3007 RMK A01 T01480103  RH  075%=      5-min Rain = 0
KGO1 160828Z 00007KT 15/10 A3007 RMK A01 T01480103  RH  074%=      5-min Rain = 0
KGO1 160829Z 35007KT 15/10 A3008 RMK A01 T01480104  RH  075%=      5-min Rain = 0
KGO1 160830Z 35007KT 15/11 A3008 RMK A01 T01480105  RH  075%=      5-min Rain = 0
KGO1 160831Z 34007KT 15/11 A3008 RMK A01 T01470105  RH  076%=      5-min Rain = 0
KGO1 160832Z 35007KT 15/11 A3008 RMK A01 T01460105  RH  077%=      5-min Rain = 0
KGO1 160833Z 34006KT 15/11 A3008 RMK A01 T01450105  RH  077%=      5-min Rain = 0
KGO1 160834Z 35005KT 15/11 A3008 RMK A01 T01450105  RH  077%=      5-min Rain = 0
KGO1 160835Z 35005KT 14/11 A3007 RMK A01 T01440105  RH  077%=      5-min Rain = 0
KGO1 160836Z 36004KT 14/11 A3007 RMK A01 T01430105  RH  078%=      5-min Rain = 0
KGO1 160837Z 00004KT 14/11 A3007 RMK A01 T01430105  RH  078%=      5-min Rain = 0
KGO1 160838Z 36004KT 14/11 A3007 RMK A01 T01430105  RH  078%=      5-min Rain = 0
KGO1 160839Z 00005KT 14/11 A3007 RMK A01 T01430105  RH  078%=      5-min Rain = 0
KGO1 160840Z 35005KT 14/11 A3007 RMK A01 T01430105  RH  078%=      5-min Rain = 0
KGO1 160841Z 35006KT 14/11 A3007 RMK A01 T01420106  RH  079%=      5-min Rain = 0
KGO1 160842Z 34006KT 14/11 A3007 RMK A01 T01410106  RH  079%=      5-min Rain = 0
KGO1 160843Z 34007KT 14/11 A3007 RMK A01 T01390107  RH  081%=      5-min Rain = 0
KGO1 160844Z 35006KT 14/11 A3007 RMK A01 T01390109  RH  082%=      5-min Rain = 0
KGO1 160845Z 35007KT 14/11 A3007 RMK A01 T01390110  RH  083%=      5-min Rain = 0
KGO1 160846Z 35006KT 14/11 A3007 RMK A01 T01390112  RH  083%=      5-min Rain = 0
KGO1 160847Z 35006KT 14/11 A3007 RMK A01 T01390113  RH  084%=      5-min Rain = 0
KGO1 160848Z 35005KT 14/11 A3006 RMK A01 T01400114  RH  084%=      5-min Rain = 0
KGO1 160849Z 35005KT 14/11 A3006 RMK A01 T01400114  RH  085%=      5-min Rain = 0
KGO1 160850Z 36005KT 14/12 A3006 RMK A01 T01400115  RH  085%=      5-min Rain = 0
KGO1 160851Z 00006KT 14/12 A3006 RMK A01 T01400116  RH  085%=      5-min Rain = 0
KGO1 160852Z 00006KT 14/12 A3006 RMK A01 T01410118  RH  086%=      5-min Rain = 0
KGO1 160853Z 01007KT 14/12 A3006 RMK A01 T01420121  RH  087%=      5-min Rain = 0
KGO1 160854Z 01006KT 14/12 A3006 RMK A01 T01420122  RH  087%=      5-min Rain = 0
KGO1 160855Z 02006KT 14/12 A3006 RMK A01 T01420123  RH  088%=      5-min Rain = 0
KGO1 160856Z 02006KT 14/12 A3006 RMK A01 T01420123  RH  088%=      5-min Rain = 0
KGO1 160857Z 02006KT 14/12 A3006 RMK A01 T01420122  RH  088%=      5-min Rain = 0
KGO1 160858Z 03005KT 14/12 A3006 RMK A01 T01420122  RH  088%=      5-min Rain = 0
KGO1 160859Z 03006KT 14/12 A3006 RMK A01 T01420123  RH  088%=      5-min Rain = 0
KGO1 160900Z 03006KT 14/12 A3006 RMK A01 T01420123  RH  089%=      5-min Rain = 0
KGO1 160901Z 03006KT 14/12 A3006 RMK A01 T01410123  RH  089%=      5-min Rain = 0
KGO1 160902Z 02006KT 14/12 A3006 RMK A01 T01410123  RH  089%=      5-min Rain = 0
KGO1 160903Z 02006KT 14/12 A3006 RMK A01 T01400124  RH  090%=      5-min Rain = 0
KGO1 160904Z 03007KT 14/13 A3006 RMK A01 T01400127  RH  092%=      5-min Rain = 0
KGO1 160905Z 03007KT 14/13 A3006 RMK A01 T01410129  RH  092%=      5-min Rain = 0
KGO1 160906Z 03006KT 14/13 A3006 RMK A01 T01420132  RH  093%=      5-min Rain = 0
KGO1 160907Z 03008KT 14/14 A3006 RMK A01 T01440135  RH  094%=      5-min Rain = 0
KGO1 160908Z 03008KT 15/14 A3006 RMK A01 T01470139  RH  095%=      5-min Rain = 0
KGO1 160909Z 04009KT 15/14 A3006 RMK A01 T01490142  RH  095%=      5-min Rain = 0
KGO1 160910Z 03011KT 15/14 A3006 RMK A01 T01510144  RH  095%=      5-min Rain = 0
KGO1 160911Z 04010KT 15/15 A3006 RMK A01 T01530146  RH  096%=      5-min Rain = 0
KGO1 160912Z 03010KT 15/15 A3006 RMK A01 T01530145  RH  095%=      5-min Rain = 0
KGO1 160913Z 03009KT 15/14 A3006 RMK A01 T01530143  RH  094%=      5-min Rain = 0
KGO1 160914Z 03007KT 15/14 A3006 RMK A01 T01510141  RH  093%=      5-min Rain = 0
KGO1 160915Z 02007KT 15/14 A3006 RMK A01 T01500139  RH  093%=      5-min Rain = 0
KGO1 160916Z 01007KT 15/14 A3006 RMK A01 T01480137  RH  093%=      5-min Rain = 0
KGO1 160917Z 01007KT 15/14 A3006 RMK A01 T01470138  RH  094%=      5-min Rain = 0
KGO1 160918Z 01008KT 15/14 A3006 RMK A01 T01470139  RH  095%=      5-min Rain = 0
KGO1 160919Z 01008KT 15/14 A3006 RMK A01 T01470140  RH  096%=      5-min Rain = 0
KGO1 160920Z 01008KT 15/14 A3006 RMK A01 T01480144  RH  097%=      5-min Rain = 0
KGO1 160921Z 02007KT 15/15 A3006 RMK A01 T01500147  RH  098%=      5-min Rain = 0
KGO1 160922Z 02007KT 15/15 A3006 RMK A01 T01510148  RH  098%=      5-min Rain = 0
KGO1 160923Z 03008KT 15/15 A3006 RMK A01 T01510149  RH  098%=      5-min Rain = 0
KGO1 160924Z 03008KT 15/15 A3006 RMK A01 T01520150  RH  099%=      5-min Rain = 0
KGO1 160925Z 03008KT 15/15 A3006 RMK A01 T01530151  RH  099%=      5-min Rain = 0
KGO1 160926Z 03008KT 15/15 A3006 RMK A01 T01530151  RH  099%=      5-min Rain = 0
KGO1 160927Z 03008KT 15/15 A3006 RMK A01 T01530151  RH  099%=      5-min Rain = 0
KGO1 160928Z 03008KT 15/15 A3006 RMK A01 T01530151  RH  099%=      5-min Rain = 0
KGO1 160929Z 03007KT 15/15 A3006 RMK A01 T01530151  RH  099%=      5-min Rain = 0
KGO1 160930Z 02005KT 15/15 A3006 RMK A01 T01530151  RH  099%=      5-min Rain = 0
KGO1 160931Z 02006KT 15/15 A3006 RMK A01 T01520150  RH  099%=      5-min Rain = 0
KGO1 160932Z 02005KT 15/15 A3006 RMK A01 T01510149  RH  099%=      5-min Rain = 0
KGO1 160933Z 01006KT 15/15 A3006 RMK A01 T01500148  RH  099%=      5-min Rain = 0
KGO1 160934Z 02006KT 15/15 A3006 RMK A01 T01500148  RH  099%=      5-min Rain = 0
KGO1 160935Z 02006KT 15/15 A3006 RMK A01 T01500148  RH  099%=      5-min Rain = 0
KGO1 160936Z 02006KT 15/15 A3006 RMK A01 T01500148  RH  099%=      5-min Rain = 0
KGO1 160937Z 02007KT 15/15 A3006 RMK A01 T01500148  RH  099%=      5-min Rain = 0
KGO1 160938Z 01006KT 15/15 A3006 RMK A01 T01500149  RH  099%=      5-min Rain = 0
KGO1 160939Z 01007KT 15/15 A3006 RMK A01 T01500149  RH  099%=      5-min Rain = 0
KGO1 160940Z 01006KT 15/15 A3006 RMK A01 T01500150  RH  100%=      5-min Rain = 0
KGO1 160941Z 01006KT 15/15 A3006 RMK A01 T01500150  RH  100%=      5-min Rain = 0
KGO1 160942Z 01006KT 15/15 A3006 RMK A01 T01510150  RH  100%=      5-min Rain = 0
KGO1 160943Z 01006KT 15/15 A3006 RMK A01 T01500149  RH  100%=      5-min Rain = 0
KGO1 160944Z 02006KT 15/15 A3006 RMK A01 T01500149  RH  100%=      5-min Rain = 0
KGO1 160945Z 02006KT 15/15 A3006 RMK A01 T01500149  RH  100%=      5-min Rain = 0
KGO1 160946Z 03006KT 15/15 A3006 RMK A01 T01500150  RH  100%=      5-min Rain = 0
KGO1 160947Z 03006KT 15/15 A3006 RMK A01 T01500150  RH  100%=      5-min Rain = 0
KGO1 160948Z 03006KT 15/15 A3006 RMK A01 T01500150  RH  100%=      5-min Rain = 0
KGO1 160949Z 03006KT 15/15 A3006 RMK A01 T01500150  RH  100%=      5-min Rain = 0
KGO1 160950Z 03005KT 15/15 A3006 RMK A01 T01500150  RH  100%=      5-min Rain = 0
KGO1 160951Z 02005KT 15/15 A3006 RMK A01 T01500150  RH  100%=      5-min Rain = 0
KGO1 160952Z 02005KT 15/15 A3006 RMK A01 T01500149  RH  100%=      5-min Rain = 0
KGO1 160953Z 02005KT 15/15 A3006 RMK A01 T01500150  RH  100%=      5-min Rain = 0
KGO1 160954Z 02005KT 15/15 A3006 RMK A01 T01500150  RH  100%=      5-min Rain = 0
KGO1 160955Z 02006KT 15/15 A3006 RMK A01 T01500150  RH  100%=      5-min Rain = 0
KGO1 160956Z 02006KT 15/15 A3006 RMK A01 T01500150  RH  100%=      5-min Rain = 0
KGO1 160957Z 02007KT 15/15 A3005 RMK A01 T01510151  RH  100%=      5-min Rain = 0
KGO1 160958Z 02007KT 15/15 A3006 RMK A01 T01520152  RH  100%=      5-min Rain = 0
KGO1 160959Z 02008KT 15/15 A3006 RMK A01 T01530153  RH  100%=      5-min Rain = 0
KGO1 161000Z 02007KT 15/15 A3006 RMK A01 T01540154  RH  100%=      5-min Rain = 0
KGO1 161001Z 02007KT 16/16 A3006 RMK A01 T01550155  RH  100%=      5-min Rain = 0
KGO1 161002Z 02007KT 16/16 A3006 RMK A01 T01550155  RH  100%=      5-min Rain = 0
KGO1 161003Z 02005KT 16/16 A3006 RMK A01 T01550155  RH  100%=      5-min Rain = 0
KGO1 161004Z 02006KT 16/16 A3006 RMK A01 T01550155  RH  100%=      5-min Rain = 0
KGO1 161005Z 02005KT 16/16 A3006 RMK A01 T01560156  RH  100%=      5-min Rain = 0
KGO1 161006Z 02004KT 16/16 A3006 RMK A01 T01550155  RH  100%=      5-min Rain = 0
KGO1 161007Z 02004KT 16/16 A3005 RMK A01 T01550155  RH  100%=      5-min Rain = 0
KGO1 161008Z 03004KT 16/16 A3005 RMK A01 T01550156  RH  100%=      5-min Rain = 0
KGO1 161009Z 02003KT 16/16 A3005 RMK A01 T01560156  RH  100%=      5-min Rain = 0
KGO1 161010Z 02002KT 16/16 A3005 RMK A01 T01550156  RH  100%=      5-min Rain = 0
KGO1 161011Z 02002KT 16/16 A3005 RMK A01 T01550155  RH  100%=      5-min Rain = 0
KGO1 161012Z 00002KT 16/16 A3005 RMK A01 T01550155  RH  100%=      5-min Rain = 0
KGO1 161013Z 36002KT 16/16 A3005 RMK A01 T01550155  RH  100%=      5-min Rain = 0
KGO1 161014Z 34002KT 15/15 A3005 RMK A01 T01540154  RH  100%=      5-min Rain = 0
KGO1 161015Z 33002KT 15/15 A3005 RMK A01 T01540154  RH  100%=      5-min Rain = 0
KGO1 161016Z 35002KT 15/15 A3005 RMK A01 T01540154  RH  100%=      5-min Rain = 0
KGO1 161017Z 01002KT 15/15 A3005 RMK A01 T01530153  RH  100%=      5-min Rain = 0
KGO1 161018Z 02002KT 15/15 A3005 RMK A01 T01530153  RH  100%=      5-min Rain = 0
KGO1 161019Z 03002KT 15/15 A3005 RMK A01 T01530153  RH  100%=      5-min Rain = 0
KGO1 161020Z 02003KT 15/15 A3005 RMK A01 T01530153  RH  100%=      5-min Rain = 0
KGO1 161021Z 03003KT 15/15 A3005 RMK A01 T01530153  RH  100%=      5-min Rain = 0
KGO1 161022Z 02003KT 15/15 A3005 RMK A01 T01530153  RH  100%=      5-min Rain = 0
KGO1 161023Z 02003KT 15/15 A3005 RMK A01 T01530153  RH  100%=      5-min Rain = 0
KGO1 161024Z 02003KT 15/15 A3005 RMK A01 T01530153  RH  100%=      5-min Rain = 0
KGO1 161025Z 01003KT 15/15 A3005 RMK A01 T01530153  RH  100%=      5-min Rain = 0
KGO1 161026Z 00002KT 15/15 A3005 RMK A01 T01530153  RH  100%=      5-min Rain = 0
KGO1 161027Z 00003KT 15/15 A3005 RMK A01 T01530153  RH  100%=      5-min Rain = 0
KGO1 161028Z 01002KT 15/15 A3005 RMK A01 T01530153  RH  100%=      5-min Rain = 0
KGO1 161029Z 01002KT 15/15 A3005 RMK A01 T01530153  RH  100%=      5-min Rain = 0
KGO1 161030Z 01001KT 15/15 A3005 RMK A01 T01530153  RH  100%=      5-min Rain = 0
KGO1 161031Z 35001KT 15/15 A3005 RMK A01 T01530154  RH  100%=      5-min Rain = 0
KGO1 161032Z 35002KT 15/15 A3005 RMK A01 T01530153  RH  100%=      5-min Rain = 0
KGO1 161033Z 35002KT 15/15 A3005 RMK A01 T01530153  RH  100%=      5-min Rain = 0
KGO1 161034Z 35002KT 15/15 A3005 RMK A01 T01530153  RH  100%=      5-min Rain = 0
KGO1 161035Z 33001KT 15/15 A3005 RMK A01 T01530153  RH  100%=      5-min Rain = 0
KGO1 161036Z 01000KT 15/15 A3005 RMK A01 T01530153  RH  100%=      5-min Rain = 0
KGO1 161037Z 02001KT 15/15 A3005 RMK A01 T01530153  RH  100%=      5-min Rain = 0
KGO1 161038Z 02001KT 15/15 A3005 RMK A01 T01530153  RH  100%=      5-min Rain = 0
KGO1 161039Z 02001KT 15/15 A3005 RMK A01 T01530153  RH  100%=      5-min Rain = 0
KGO1 161040Z 01002KT 15/15 A3005 RMK A01 T01530153  RH  100%=      5-min Rain = 0
KGO1 161041Z 00002KT 15/15 A3005 RMK A01 T01530153  RH  100%=      5-min Rain = 0
KGO1 161042Z 36002KT 15/15 A3005 RMK A01 T01530153  RH  100%=      5-min Rain = 0
KGO1 161043Z 36002KT 15/15 A3005 RMK A01 T01530153  RH  100%=      5-min Rain = 0
KGO1 161044Z 34003KT 15/15 A3005 RMK A01 T01520152  RH  100%=      5-min Rain = 0
KGO1 161045Z 34003KT 15/15 A3005 RMK A01 T01520153  RH  100%=      5-min Rain = 0
KGO1 161046Z 34003KT 15/15 A3005 RMK A01 T01520152  RH  100%=      5-min Rain = 0
KGO1 161047Z 34003KT 15/15 A3005 RMK A01 T01520152  RH  100%=      5-min Rain = 0
KGO1 161048Z 33003KT 15/15 A3005 RMK A01 T01520152  RH  100%=      5-min Rain = 0
KGO1 161049Z 31002KT 15/15 A3005 RMK A01 T01520152  RH  100%=      5-min Rain = 0
KGO1 161050Z 30003KT 15/15 A3005 RMK A01 T01520152  RH  100%=      5-min Rain = 0
KGO1 161051Z 28002KT 15/15 A3005 RMK A01 T01520152  RH  100%=      5-min Rain = 0
KGO1 161052Z 27002KT 15/15 A3005 RMK A01 T01520152  RH  100%=      5-min Rain = 0
KGO1 161053Z 27002KT 15/15 A3005 RMK A01 T01520152  RH  100%=      5-min Rain = 0
KGO1 161054Z 26002KT 15/15 A3005 RMK A01 T01510151  RH  100%=      5-min Rain = 0
KGO1 161055Z 26003KT 15/15 A3005 RMK A01 T01510151  RH  100%=      5-min Rain = 0
KGO1 161056Z 26003KT 15/15 A3005 RMK A01 T01510151  RH  100%=      5-min Rain = 0
KGO1 161057Z 26003KT 15/15 A3005 RMK A01 T01500150  RH  100%=      5-min Rain = 0
KGO1 161058Z 26003KT 15/15 A3005 RMK A01 T01500150  RH  100%=      5-min Rain = 0
KGO1 161059Z 26004KT 15/15 A3005 RMK A01 T01500150  RH  100%=      5-min Rain = 0
KGO1 161100Z 25004KT 15/15 A3005 RMK A01 T01490149  RH  100%=      5-min Rain = 0
KGO1 161101Z 25004KT 15/15 A3005 RMK A01 T01490149  RH  100%=      5-min Rain = 0
KGO1 161102Z 25004KT 15/15 A3005 RMK A01 T01490149  RH  100%=      5-min Rain = 0
KGO1 161103Z 25003KT 15/15 A3005 RMK A01 T01480148  RH  100%=      5-min Rain = 0
KGO1 161104Z 25003KT 15/15 A3004 RMK A01 T01490149  RH  100%=      5-min Rain = 0
KGO1 161105Z 25004KT 15/15 A3004 RMK A01 T01480148  RH  100%=      5-min Rain = 0
KGO1 161106Z 25005KT 15/15 A3004 RMK A01 T01480148  RH  100%=      5-min Rain = 0
KGO1 161107Z 24005KT 15/15 A3004 RMK A01 T01480148  RH  100%=      5-min Rain = 0
KGO1 161108Z 23004KT 15/15 A3004 RMK A01 T01470147  RH  100%=      5-min Rain = 0
KGO1 161109Z 22003KT 15/15 A3004 RMK A01 T01470147  RH  100%=      5-min Rain = 0
KGO1 161110Z 22004KT 15/15 A3004 RMK A01 T01470147  RH  100%=      5-min Rain = 0
KGO1 161111Z 22004KT 15/15 A3004 RMK A01 T01470147  RH  100%=      5-min Rain = 0
KGO1 161112Z 23004KT 15/15 A3004 RMK A01 T01470147  RH  100%=      5-min Rain = 0
KGO1 161113Z 23004KT 15/15 A3004 RMK A01 T01460146  RH  100%=      5-min Rain = 0
KGO1 161114Z 23004KT 15/15 A3004 RMK A01 T01460146  RH  100%=      5-min Rain = 0
KGO1 161115Z 23004KT 15/15 A3004 RMK A01 T01450145  RH  100%=      5-min Rain = 0
KGO1 161116Z 23003KT 14/14 A3004 RMK A01 T01440144  RH  100%=      5-min Rain = 0
KGO1 161117Z 23004KT 14/14 A3004 RMK A01 T01440144  RH  100%=      5-min Rain = 0
KGO1 161118Z 23005KT 14/14 A3004 RMK A01 T01430143  RH  100%=      5-min Rain = 0
KGO1 161119Z 24006KT 14/14 A3005 RMK A01 T01430143  RH  100%=      5-min Rain = 0
KGO1 161120Z 25006KT 14/14 A3005 RMK A01 T01420142  RH  100%=      5-min Rain = 0
KGO1 161121Z 24005KT 14/14 A3005 RMK A01 T01420142  RH  100%=      5-min Rain = 0
KGO1 161122Z 22005KT 14/14 A3005 RMK A01 T01410141  RH  100%=      5-min Rain = 0
KGO1 161123Z 23005KT 14/14 A3005 RMK A01 T01410141  RH  100%=      5-min Rain = 0
KGO1 161124Z 24005KT 14/14 A3005 RMK A01 T01410141  RH  100%=      5-min Rain = 0
KGO1 161125Z 23005KT 14/14 A3005 RMK A01 T01410141  RH  100%=      5-min Rain = 0
KGO1 161126Z 23005KT 14/14 A3005 RMK A01 T01400140  RH  100%=      5-min Rain = 0
KGO1 161127Z 24005KT 14/14 A3005 RMK A01 T01400140  RH  100%=      5-min Rain = 0
KGO1 161128Z 26005KT 14/14 A3005 RMK A01 T01400140  RH  100%=      5-min Rain = 0
KGO1 161129Z 26006KT 14/14 A3005 RMK A01 T01400140  RH  100%=      5-min Rain = 0
KGO1 161130Z 25004KT 14/14 A3005 RMK A01 T01400140  RH  100%=      5-min Rain = 0
KGO1 161131Z 24004KT 14/14 A3005 RMK A01 T01400141  RH  100%=      5-min Rain = 0
KGO1 161132Z 24004KT 14/14 A3005 RMK A01 T01410141  RH  100%=      5-min Rain = 0
KGO1 161133Z 24003KT 14/14 A3005 RMK A01 T01410141  RH  100%=      5-min Rain = 0
KGO1 161134Z 26004KT 14/14 A3005 RMK A01 T01410141  RH  100%=      5-min Rain = 0
KGO1 161135Z 26003KT 14/14 A3005 RMK A01 T01410141  RH  100%=      5-min Rain = 0
KGO1 161136Z 26004KT 14/14 A3005 RMK A01 T01410141  RH  100%=      5-min Rain = 0
KGO1 161137Z 27005KT 14/14 A3005 RMK A01 T01410141  RH  100%=      5-min Rain = 0
KGO1 161138Z 27005KT 14/14 A3005 RMK A01 T01410141  RH  100%=      5-min Rain = 0
KGO1 161139Z 27004KT 14/14 A3005 RMK A01 T01400140  RH  100%=      5-min Rain = 0
KGO1 161140Z 27004KT 14/14 A3005 RMK A01 T01400140  RH  100%=      5-min Rain = 0
KGO1 161141Z 27004KT 14/14 A3005 RMK A01 T01400140  RH  100%=      5-min Rain = 0
KGO1 161142Z 27004KT 14/14 A3005 RMK A01 T01400140  RH  100%=      5-min Rain = 0
KGO1 161143Z 26004KT 14/14 A3005 RMK A01 T01400141  RH  100%=      5-min Rain = 0
KGO1 161144Z 26005KT 14/14 A3005 RMK A01 T01410141  RH  100%=      5-min Rain = 0
KGO1 161145Z 26005KT 14/14 A3005 RMK A01 T01410141  RH  100%=      5-min Rain = 0
KGO1 161146Z 26004KT 14/14 A3005 RMK A01 T01420142  RH  100%=      5-min Rain = 0
KGO1 161147Z 26004KT 14/14 A3005 RMK A01 T01420142  RH  100%=      5-min Rain = 0
KGO1 161148Z 26005KT 14/14 A3005 RMK A01 T01410142  RH  100%=      5-min Rain = 0
KGO1 161149Z 26004KT 14/14 A3005 RMK A01 T01410141  RH  100%=      5-min Rain = 0
KGO1 161150Z 27004KT 14/14 A3005 RMK A01 T01410142  RH  100%=      5-min Rain = 0
KGO1 161151Z 27004KT 14/14 A3005 RMK A01 T01420142  RH  100%=      5-min Rain = 0
KGO1 161152Z 27004KT 14/14 A3005 RMK A01 T01420142  RH  100%=      5-min Rain = 0
KGO1 161153Z 27004KT 14/14 A3005 RMK A01 T01420142  RH  100%=      5-min Rain = 0
KGO1 161154Z 26004KT 14/14 A3005 RMK A01 T01420142  RH  100%=      5-min Rain = 0
KGO1 161155Z 26004KT 14/14 A3005 RMK A01 T01420142  RH  100%=      5-min Rain = 0
KGO1 161156Z 26004KT 14/14 A3006 RMK A01 T01430143  RH  100%=      5-min Rain = 0
KGO1 161157Z 28003KT 14/14 A3006 RMK A01 T01430143  RH  100%=      5-min Rain = 0
KGO1 161158Z 28003KT 14/14 A3006 RMK A01 T01430143  RH  100%=      5-min Rain = 0
KGO1 161159Z 28004KT 14/14 A3005 RMK A01 T01430143  RH  100%=      5-min Rain = 0
KGO1 161200Z 29004KT 14/14 A3005 RMK A01 T01430143  RH  100%=      5-min Rain = 0
KGO1 161201Z 30003KT 14/14 A3005 RMK A01 T01430143  RH  100%=      5-min Rain = 0
KGO1 161202Z 32004KT 14/14 A3005 RMK A01 T01430143  RH  100%=      5-min Rain = 0
KGO1 161203Z 32004KT 14/14 A3005 RMK A01 T01430143  RH  100%=      5-min Rain = 0
KGO1 161204Z 32004KT 14/14 A3006 RMK A01 T01430144  RH  100%=      5-min Rain = 0
KGO1 161205Z 32003KT 14/14 A3006 RMK A01 T01440144  RH  100%=      5-min Rain = 0
KGO1 161206Z 32003KT 14/14 A3006 RMK A01 T01440144  RH  100%=      5-min Rain = 0
KGO1 161207Z 32004KT 14/14 A3006 RMK A01 T01430143  RH  100%=      5-min Rain = 0
KGO1 161208Z 31004KT 14/14 A3006 RMK A01 T01430143  RH  100%=      5-min Rain = 0
KGO1 161209Z 31004KT 14/14 A3006 RMK A01 T01430143  RH  100%=      5-min Rain = 0
KGO1 161210Z 32004KT 14/14 A3006 RMK A01 T01430143  RH  100%=      5-min Rain = 0
KGO1 161211Z 33005KT 14/14 A3006 RMK A01 T01440144  RH  100%=      5-min Rain = 0
KGO1 161212Z 32005KT 14/14 A3006 RMK A01 T01440144  RH  100%=      5-min Rain = 0
KGO1 161213Z 31005KT 14/14 A3006 RMK A01 T01440144  RH  100%=      5-min Rain = 0
KGO1 161214Z 32005KT 14/14 A3007 RMK A01 T01440144  RH  100%=      5-min Rain = 0
KGO1 161215Z 32005KT 15/15 A3007 RMK A01 T01450145  RH  100%=      5-min Rain = 0
KGO1 161216Z 31005KT 15/15 A3007 RMK A01 T01450145  RH  100%=      5-min Rain = 0
KGO1 161217Z 31005KT 15/15 A3007 RMK A01 T01450145  RH  100%=      5-min Rain = 0
KGO1 161218Z 31005KT 15/15 A3007 RMK A01 T01450145  RH  100%=      5-min Rain = 0
KGO1 161219Z 31005KT 15/15 A3007 RMK A01 T01460146  RH  100%=      5-min Rain = 0
KGO1 161220Z 31005KT 15/15 A3007 RMK A01 T01460146  RH  100%=      5-min Rain = 0
KGO1 161221Z 31005KT 15/15 A3007 RMK A01 T01460146  RH  100%=      5-min Rain = 0
KGO1 161222Z 31006KT 15/15 A3006 RMK A01 T01470147  RH  100%=      5-min Rain = 0
KGO1 161223Z 31006KT 15/15 A3006 RMK A01 T01470147  RH  100%=      5-min Rain = 0
KGO1 161224Z 31006KT 15/15 A3007 RMK A01 T01470147  RH  100%=      5-min Rain = 0
KGO1 161225Z 30005KT 15/15 A3007 RMK A01 T01470147  RH  100%=      5-min Rain = 0
KGO1 161226Z 30005KT 15/15 A3007 RMK A01 T01470148  RH  100%=      5-min Rain = 0
KGO1 161227Z 30005KT 15/15 A3007 RMK A01 T01480148  RH  100%=      5-min Rain = 0
KGO1 161228Z 30005KT 15/15 A3007 RMK A01 T01480149  RH  100%=      5-min Rain = 0
KGO1 161229Z 30005KT 15/15 A3007 RMK A01 T01490149  RH  100%=      5-min Rain = 0
KGO1 161230Z 30005KT 15/15 A3007 RMK A01 T01490149  RH  100%=      5-min Rain = 0
KGO1 161231Z 30005KT 15/15 A3007 RMK A01 T01490149  RH  100%=      5-min Rain = 0
KGO1 161232Z 30005KT 15/15 A3007 RMK A01 T01490149  RH  100%=      5-min Rain = 0
KGO1 161233Z 30005KT 15/15 A3007 RMK A01 T01490150  RH  100%=      5-min Rain = 0
KGO1 161234Z 30005KT 15/15 A3007 RMK A01 T01500150  RH  100%=      5-min Rain = 0
KGO1 161235Z 29005KT 15/15 A3007 RMK A01 T01500150  RH  100%=      5-min Rain = 0
KGO1 161236Z 30005KT 15/15 A3007 RMK A01 T01500150  RH  100%=      5-min Rain = 0
KGO1 161237Z 30005KT 15/15 A3007 RMK A01 T01500150  RH  100%=      5-min Rain = 0
KGO1 161238Z 30005KT 15/15 A3007 RMK A01 T01500150  RH  100%=      5-min Rain = 0
KGO1 161239Z 29004KT 15/15 A3007 RMK A01 T01510151  RH  100%=      5-min Rain = 0
KGO1 161240Z 29004KT 15/15 A3007 RMK A01 T01510151  RH  100%=      5-min Rain = 0
KGO1 161241Z 29004KT 15/15 A3007 RMK A01 T01520152  RH  100%=      5-min Rain = 0
KGO1 161242Z 29005KT 15/15 A3007 RMK A01 T01520152  RH  100%=      5-min Rain = 0
KGO1 161243Z 29006KT 15/15 A3007 RMK A01 T01520152  RH  100%=      5-min Rain = 0
KGO1 161244Z 29007KT 15/15 A3007 RMK A01 T01520152  RH  100%=      5-min Rain = 0
KGO1 161245Z 29006KT 15/15 A3008 RMK A01 T01530153  RH  100%=      5-min Rain = 0
KGO1 161246Z 28005KT 15/15 A3008 RMK A01 T01540154  RH  100%=      5-min Rain = 0
KGO1 161247Z 27005KT 15/15 A3008 RMK A01 T01540154  RH  100%=      5-min Rain = 0
KGO1 161248Z 26006KT 15/15 A3008 RMK A01 T01540154  RH  100%=      5-min Rain = 0
KGO1 161249Z 25006KT 16/16 A3008 RMK A01 T01550155  RH  100%=      5-min Rain = 0
KGO1 161250Z 24006KT 16/16 A3008 RMK A01 T01560156  RH  100%=      5-min Rain = 0
KGO1 161251Z 24005KT 16/16 A3008 RMK A01 T01560156  RH  100%=      5-min Rain = 0
KGO1 161252Z 24006KT 16/16 A3008 RMK A01 T01560156  RH  100%=      5-min Rain = 0
KGO1 161253Z 24008KT 16/16 A3008 RMK A01 T01560156  RH  100%=      5-min Rain = 0
KGO1 161254Z 24008KT 16/16 A3008 RMK A01 T01560156  RH  100%=      5-min Rain = 0
KGO1 161255Z 24007KT 16/16 A3008 RMK A01 T01560156  RH  099%=      5-min Rain = 0
KGO1 161256Z 25007KT 16/16 A3008 RMK A01 T01570156  RH  099%=      5-min Rain = 0
KGO1 161257Z 24007KT 16/16 A3008 RMK A01 T01580157  RH  099%=      5-min Rain = 0
KGO1 161258Z 24007KT 16/16 A3008 RMK A01 T01590158  RH  099%=      5-min Rain = 0
KGO1 161259Z 24007KT 16/16 A3008 RMK A01 T01600158  RH  098%=      5-min Rain = 0
KGO1 161300Z 24006KT 16/16 A3008 RMK A01 T01610158  RH  098%=      5-min Rain = 0
KGO1 161301Z 24006KT 16/16 A3008 RMK A01 T01620158  RH  097%=      5-min Rain = 0
KGO1 161302Z 23006KT 16/16 A3008 RMK A01 T01630159  RH  097%=      5-min Rain = 0
KGO1 161303Z 23006KT 16/16 A3008 RMK A01 T01640159  RH  097%=      5-min Rain = 0
KGO1 161304Z 23006KT 17/16 A3008 RMK A01 T01650159  RH  097%=      5-min Rain = 0
KGO1 161305Z 23005KT 17/16 A3008 RMK A01 T01660160  RH  097%=      5-min Rain = 0
KGO1 161306Z 23005KT 17/16 A3008 RMK A01 T01670161  RH  096%=      5-min Rain = 0
KGO1 161307Z 24004KT 17/16 A3008 RMK A01 T01680161  RH  095%=      5-min Rain = 0
KGO1 161308Z 25005KT 17/16 A3008 RMK A01 T01700163  RH  096%=      5-min Rain = 0
KGO1 161309Z 25006KT 17/16 A3008 RMK A01 T01710164  RH  095%=      5-min Rain = 0
KGO1 161310Z 25005KT 17/16 A3008 RMK A01 T01730163  RH  094%=      5-min Rain = 0
KGO1 161311Z 24004KT 17/16 A3008 RMK A01 T01740163  RH  093%=      5-min Rain = 0
KGO1 161312Z 24003KT 18/16 A3008 RMK A01 T01750164  RH  093%=      5-min Rain = 0
KGO1 161313Z 23002KT 18/17 A3008 RMK A01 T01760165  RH  093%=      5-min Rain = 0
KGO1 161314Z 21003KT 18/16 A3008 RMK A01 T01770163  RH  091%=      5-min Rain = 0
KGO1 161315Z 22003KT 18/16 A3008 RMK A01 T01790162  RH  090%=      5-min Rain = 0
KGO1 161316Z 22003KT 18/16 A3008 RMK A01 T01800160  RH  088%=      5-min Rain = 0
KGO1 161317Z 19003KT 18/16 A3009 RMK A01 T01820158  RH  086%=      5-min Rain = 0
KGO1 161318Z 19004KT 18/16 A3009 RMK A01 T01840159  RH  085%=      5-min Rain = 0
KGO1 161319Z 20005KT 19/16 A3009 RMK A01 T01870161  RH  085%=      5-min Rain = 0
KGO1 161320Z 19004KT 19/16 A3009 RMK A01 T01880157  RH  082%=      5-min Rain = 0.01
KGO1 161321Z 19005KT 19/16 A3009 RMK A01 T01880155  RH  081%=      5-min Rain = 0
KGO1 161322Z 19006KT 19/15 A3009 RMK A01 T01880154  RH  080%=      5-min Rain = 0
KGO1 161323Z 20006KT 19/15 A3009 RMK A01 T01880152  RH  080%=      5-min Rain = 0.01
KGO1 161324Z 20005KT 19/15 A3009 RMK A01 T01870153  RH  081%=      5-min Rain = 0
KGO1 161325Z 19006KT 19/16 A3009 RMK A01 T01870155  RH  082%=      5-min Rain = 0
KGO1 161326Z 18007KT 19/16 A3009 RMK A01 T01860155  RH  082%=      5-min Rain = 0
KGO1 161327Z 18006KT 19/16 A3009 RMK A01 T01850155  RH  083%=      5-min Rain = 0.01
KGO1 161328Z 17006KT 18/16 A3009 RMK A01 T01840156  RH  084%=      5-min Rain = 0
KGO1 161329Z 17008KT 18/16 A3009 RMK A01 T01830156  RH  084%=      5-min Rain = 0
KGO1 161330Z 17008KT 18/15 A3009 RMK A01 T01820154  RH  084%=      5-min Rain = 0
KGO1 161331Z 17008KT 18/15 A3009 RMK A01 T01820154  RH  084%=      5-min Rain = 0
KGO1 161332Z 17008KT 18/16 A3009 RMK A01 T01810155  RH  085%=      5-min Rain = 0
KGO1 161333Z 16008KT 18/16 A3009 RMK A01 T01800158  RH  087%=      5-min Rain = 0
KGO1 161334Z 17008KT 18/16 A3009 RMK A01 T01790159  RH  088%=      5-min Rain = 0
KGO1 161335Z 17009KT 18/16 A3009 RMK A01 T01770159  RH  089%=      5-min Rain = 0
KGO1 161336Z 18009KT 18/16 A3009 RMK A01 T01770156  RH  088%=      5-min Rain = 0
KGO1 161337Z 18007KT 18/16 A3009 RMK A01 T01770155  RH  087%=      5-min Rain = 0
KGO1 161338Z 18007KT 18/16 A3009 RMK A01 T01770157  RH  088%=      5-min Rain = 0
KGO1 161339Z 17008KT 18/16 A3009 RMK A01 T01760158  RH  089%=      5-min Rain = 0
KGO1 161340Z 17008KT 18/16 A3009 RMK A01 T01760158  RH  089%=      5-min Rain = 0
KGO1 161341Z 17007KT 18/16 A3009 RMK A01 T01760157  RH  089%=      5-min Rain = 0
KGO1 161342Z 18006KT 18/16 A3009 RMK A01 T01760156  RH  088%=      5-min Rain = 0
KGO1 161343Z 18005KT 18/15 A301 RMK A01 T01760154  RH  087%=      5-min Rain = 0
KGO1 161344Z 18004KT 18/16 A301 RMK A01 T01760156  RH  088%=      5-min Rain = 0
KGO1 161345Z 18004KT 18/16 A301 RMK A01 T01760156  RH  088%=      5-min Rain = 0
KGO1 161346Z 17003KT 18/16 A301 RMK A01 T01760156  RH  088%=      5-min Rain = 0
KGO1 161347Z 16002KT 18/16 A301 RMK A01 T01760156  RH  088%=      5-min Rain = 0
KGO1 161348Z 17002KT 18/16 A301 RMK A01 T01750157  RH  089%=      5-min Rain = 0
KGO1 161349Z 15001KT 18/16 A301 RMK A01 T01750156  RH  088%=      5-min Rain = 0
KGO1 161350Z 15001KT 18/16 A301 RMK A01 T01750155  RH  088%=      5-min Rain = 0
KGO1 161351Z 14001KT 18/16 A301 RMK A01 T01750156  RH  089%=      5-min Rain = 0
KGO1 161352Z 14001KT 18/15 A301 RMK A01 T01750153  RH  087%=      5-min Rain = 0
KGO1 161353Z 16002KT 18/15 A301 RMK A01 T01750151  RH  086%=      5-min Rain = 0
KGO1 161354Z 15002KT 18/15 A3009 RMK A01 T01750151  RH  086%=      5-min Rain = 0
KGO1 161355Z 14002KT 18/15 A3009 RMK A01 T01750151  RH  086%=      5-min Rain = 0
KGO1 161356Z 14002KT 18/15 A3009 RMK A01 T01760152  RH  086%=      5-min Rain = 0
KGO1 161357Z 14002KT 18/15 A3009 RMK A01 T01760154  RH  087%=      5-min Rain = 0
KGO1 161358Z 14002KT 18/15 A301 RMK A01 T01760154  RH  087%=      5-min Rain = 0
KGO1 161359Z 14003KT 18/15 A301 RMK A01 T01760153  RH  086%=      5-min Rain = 0
KGO1 161400Z 12002KT 18/15 A301 RMK A01 T01760149  RH  084%=      5-min Rain = 0
KGO1 161401Z 13003KT 18/15 A301 RMK A01 T01770152  RH  085%=      5-min Rain = 0
KGO1 161402Z 13003KT 18/15 A301 RMK A01 T01770151  RH  084%=      5-min Rain = 0
KGO1 161403Z 13003KT 18/15 A301 RMK A01 T01770149  RH  083%=      5-min Rain = 0
KGO1 161404Z 13003KT 18/15 A301 RMK A01 T01780149  RH  083%=      5-min Rain = 0
KGO1 161405Z 16002KT 18/15 A301 RMK A01 T01780147  RH  082%=      5-min Rain = 0
KGO1 161406Z 17003KT 18/14 A301 RMK A01 T01780142  RH  080%=      5-min Rain = 0
KGO1 161407Z 16002KT 18/14 A301 RMK A01 T01780142  RH  079%=      5-min Rain = 0
KGO1 161408Z 15003KT 18/14 A301 RMK A01 T01780141  RH  079%=      5-min Rain = 0
KGO1 161409Z 14003KT 18/14 A301 RMK A01 T01790141  RH  078%=      5-min Rain = 0
KGO1 161410Z 11003KT 18/14 A3011 RMK A01 T01790144  RH  080%=      5-min Rain = 0
KGO1 161411Z 08004KT 18/15 A3011 RMK A01 T01790149  RH  083%=      5-min Rain = 0
KGO1 161412Z 08005KT 18/15 A3011 RMK A01 T01790152  RH  084%=      5-min Rain = 0
KGO1 161413Z 08005KT 18/15 A3011 RMK A01 T01780153  RH  086%=      5-min Rain = 0
KGO1 161414Z 08003KT 18/15 A3011 RMK A01 T01770154  RH  086%=      5-min Rain = 0
KGO1 161415Z 07006KT 18/15 A3011 RMK A01 T01760152  RH  086%=      5-min Rain = 0
KGO1 161416Z 07006KT 18/15 A3011 RMK A01 T01760148  RH  083%=      5-min Rain = 0
KGO1 161417Z 07006KT 18/15 A3011 RMK A01 T01760148  RH  084%=      5-min Rain = 0
KGO1 161418Z 06007KT 18/15 A3011 RMK A01 T01760152  RH  086%=      5-min Rain = 0
KGO1 161419Z 06008KT 18/15 A3012 RMK A01 T01760153  RH  087%=      5-min Rain = 0
KGO1 161420Z 07009KT 18/16 A3012 RMK A01 T01750156  RH  088%=      5-min Rain = 0
KGO1 161421Z 06009KT 17/16 A3012 RMK A01 T01740157  RH  090%=      5-min Rain = 0
KGO1 161422Z 06009KT 17/16 A3012 RMK A01 T01730158  RH  091%=      5-min Rain = 0
KGO1 161423Z 06009KT 17/16 A3012 RMK A01 T01730158  RH  091%=      5-min Rain = 0
KGO1 161424Z 06007KT 17/16 A3012 RMK A01 T01730158  RH  091%=      5-min Rain = 0
KGO1 161425Z 07007KT 17/16 A3012 RMK A01 T01730158  RH  091%=      5-min Rain = 0
KGO1 161426Z 06006KT 17/16 A3012 RMK A01 T01720156  RH  090%=      5-min Rain = 0
KGO1 161427Z 06007KT 17/16 A3012 RMK A01 T01720156  RH  091%=      5-min Rain = 0
KGO1 161428Z 06008KT 17/16 A3012 RMK A01 T01710155  RH  090%=      5-min Rain = 0
KGO1 161429Z 07008KT 17/15 A3012 RMK A01 T01710153  RH  089%=      5-min Rain = 0
KGO1 161430Z 07006KT 17/15 A3012 RMK A01 T01700152  RH  089%=      5-min Rain = 0
KGO1 161431Z 08007KT 17/15 A3013 RMK A01 T01700152  RH  089%=      5-min Rain = 0
KGO1 161432Z 08007KT 17/15 A3013 RMK A01 T01700152  RH  089%=      5-min Rain = 0
KGO1 161433Z 08007KT 17/15 A3012 RMK A01 T01700151  RH  088%=      5-min Rain = 0
KGO1 161434Z 08007KT 17/15 A3012 RMK A01 T01700150  RH  088%=      5-min Rain = 0
KGO1 161435Z 08007KT 17/15 A3012 RMK A01 T01700148  RH  087%=      5-min Rain = 0
KGO1 161436Z 08006KT 17/15 A3012 RMK A01 T01700147  RH  087%=      5-min Rain = 0
KGO1 161437Z 09006KT 17/15 A3012 RMK A01 T01700147  RH  086%=      5-min Rain = 0
KGO1 161438Z 09006KT 17/15 A3012 RMK A01 T01700147  RH  086%=      5-min Rain = 0
KGO1 161439Z 10006KT 17/15 A3012 RMK A01 T01700148  RH  087%=      5-min Rain = 0
KGO1 161440Z 11007KT 17/15 A3012 RMK A01 T01700148  RH  087%=      5-min Rain = 0
KGO1 161441Z 10007KT 17/15 A3013 RMK A01 T01700145  RH  085%=      5-min Rain = 0
KGO1 161442Z 09008KT 17/15 A3013 RMK A01 T01700145  RH  086%=      5-min Rain = 0
KGO1 161443Z 09009KT 17/15 A3013 RMK A01 T01700146  RH  086%=      5-min Rain = 0
KGO1 161444Z 08008KT 17/14 A3013 RMK A01 T01710142  RH  083%=      5-min Rain = 0
KGO1 161445Z 08007KT 17/14 A3012 RMK A01 T01720142  RH  083%=      5-min Rain = 0
KGO1 161446Z 08006KT 17/14 A3012 RMK A01 T01720143  RH  083%=      5-min Rain = 0
KGO1 161447Z 08006KT 17/14 A3012 RMK A01 T01720144  RH  084%=      5-min Rain = 0
KGO1 161448Z 09006KT 17/15 A3012 RMK A01 T01720145  RH  084%=      5-min Rain = 0
KGO1 161449Z 09006KT 17/15 A3012 RMK A01 T01720146  RH  085%=      5-min Rain = 0
KGO1 161450Z 10006KT 17/15 A3012 RMK A01 T01720147  RH  085%=      5-min Rain = 0
KGO1 161451Z 09005KT 17/15 A3012 RMK A01 T01720146  RH  084%=      5-min Rain = 0
KGO1 161452Z 10005KT 17/15 A3012 RMK A01 T01730146  RH  085%=      5-min Rain = 0
KGO1 161453Z 11004KT 17/15 A3013 RMK A01 T01730146  RH  084%=      5-min Rain = 0
KGO1 161454Z 12004KT 17/15 A3013 RMK A01 T01730147  RH  085%=      5-min Rain = 0
KGO1 161455Z 12004KT 17/15 A3013 RMK A01 T01730148  RH  085%=      5-min Rain = 0
KGO1 161456Z 11004KT 17/15 A3013 RMK A01 T01730147  RH  085%=      5-min Rain = 0
KGO1 161457Z 12004KT 17/15 A3013 RMK A01 T01730147  RH  085%=      5-min Rain = 0
KGO1 161458Z 13003KT 17/15 A3012 RMK A01 T01730147  RH  085%=      5-min Rain = 0
KGO1 161459Z 13003KT 17/15 A3012 RMK A01 T01730146  RH  084%=      5-min Rain = 0
KGO1 161500Z 13003KT 17/15 A3012 RMK A01 T01730146  RH  084%=      5-min Rain = 0
KGO1 161501Z 13003KT 17/15 A3012 RMK A01 T01740148  RH  085%=      5-min Rain = 0
KGO1 161502Z 13002KT 17/15 A3012 RMK A01 T01740149  RH  085%=      5-min Rain = 0
KGO1 161503Z 14003KT 18/15 A3012 RMK A01 T01750148  RH  084%=      5-min Rain = 0
KGO1 161504Z 15004KT 18/15 A3012 RMK A01 T01750150  RH  085%=      5-min Rain = 0
KGO1 161505Z 16004KT 18/15 A3012 RMK A01 T01760150  RH  085%=      5-min Rain = 0
KGO1 161506Z 16005KT 18/15 A3012 RMK A01 T01760151  RH  085%=      5-min Rain = 0
KGO1 161507Z 16005KT 18/15 A3012 RMK A01 T01770149  RH  084%=      5-min Rain = 0
KGO1 161508Z 17005KT 18/15 A3012 RMK A01 T01770149  RH  083%=      5-min Rain = 0
KGO1 161509Z 17006KT 18/15 A3012 RMK A01 T01780150  RH  084%=      5-min Rain = 0
KGO1 161510Z 17006KT 18/15 A3012 RMK A01 T01790151  RH  084%=      5-min Rain = 0
KGO1 161511Z 18007KT 18/15 A3012 RMK A01 T01790154  RH  085%=      5-min Rain = 0
KGO1 161512Z 18007KT 18/15 A3011 RMK A01 T01800153  RH  084%=      5-min Rain = 0
KGO1 161513Z 18007KT 18/16 A3011 RMK A01 T01810155  RH  085%=      5-min Rain = 0
KGO1 161514Z 18007KT 18/16 A3011 RMK A01 T01820156  RH  085%=      5-min Rain = 0
KGO1 161515Z 18007KT 19/16 A3011 RMK A01 T01850158  RH  084%=      5-min Rain = 0
KGO1 161516Z 19007KT 19/16 A3011 RMK A01 T01880164  RH  086%=      5-min Rain = 0
KGO1 161517Z 19007KT 19/17 A3011 RMK A01 T01920169  RH  087%=      5-min Rain = 0
KGO1 161518Z 18009KT 19/17 A3011 RMK A01 T01940165  RH  084%=      5-min Rain = 0
KGO1 161519Z 18011KT 20/16 A3011 RMK A01 T01960156  RH  078%=      5-min Rain = 0
KGO1 161520Z 18011KT 20/16 A301 RMK A01 T01970155  RH  077%=      5-min Rain = 0
KGO1 161521Z 18011KT 20/16 A301 RMK A01 T01980155  RH  076%=      5-min Rain = 0
KGO1 161522Z 19012KT 20/16 A301 RMK A01 T01990158  RH  077%=      5-min Rain = 0
KGO1 161523Z 18011KT 20/16 A301 RMK A01 T01980160  RH  079%=      5-min Rain = 0
KGO1 161524Z 18010KT 20/16 A301 RMK A01 T01980162  RH  080%=      5-min Rain = 0
KGO1 161525Z 18009KT 20/16 A301 RMK A01 T01980156  RH  077%=      5-min Rain = 0
KGO1 161526Z 17010KT 20/16 A301 RMK A01 T01990159  RH  078%=      5-min Rain = 0
KGO1 161527Z 18010KT 20/16 A301 RMK A01 T02000160  RH  078%=      5-min Rain = 0
KGO1 161528Z 17009KT 20/15 A301 RMK A01 T02010154  RH  074%=      5-min Rain = 0
KGO1 161529Z 17009KT 20/16 A301 RMK A01 T02010156  RH  075%=      5-min Rain = 0
KGO1 161530Z 17009KT 20/15 A3011 RMK A01 T02020152  RH  073%=      5-min Rain = 0
KGO1 161531Z 17008KT 20/15 A3011 RMK A01 T02020151  RH  073%=      5-min Rain = 0
KGO1 161532Z 17007KT 20/15 A3011 RMK A01 T02020152  RH  073%=      5-min Rain = 0
KGO1 161533Z 17007KT 20/15 A3011 RMK A01 T02030152  RH  073%=      5-min Rain = 0
KGO1 161534Z 17007KT 20/15 A3011 RMK A01 T02040154  RH  073%=      5-min Rain = 0
KGO1 161535Z 15008KT 20/15 A3011 RMK A01 T02040154  RH  073%=      5-min Rain = 0
KGO1 161536Z 15008KT 21/16 A3011 RMK A01 T02060158  RH  074%=      5-min Rain = 0
KGO1 161537Z 16007KT 21/15 A3011 RMK A01 T02090153  RH  070%=      5-min Rain = 0
KGO1 161538Z 15008KT 21/15 A3011 RMK A01 T02110149  RH  067%=      5-min Rain = 0
KGO1 161539Z 15008KT 21/15 A3011 RMK A01 T02130149  RH  067%=      5-min Rain = 0
KGO1 161540Z 16009KT 22/15 A3011 RMK A01 T02150154  RH  069%=      5-min Rain = 0
KGO1 161541Z 17008KT 22/16 A3011 RMK A01 T02170155  RH  068%=      5-min Rain = 0
KGO1 161542Z 16008KT 22/16 A3011 RMK A01 T02180155  RH  068%=      5-min Rain = 0
KGO1 161543Z 18010KT 22/15 A3011 RMK A01 T02180148  RH  064%=      5-min Rain = 0
KGO1 161544Z 18007KT 22/15 A3011 RMK A01 T02170145  RH  064%=      5-min Rain = 0
KGO1 161545Z 17007KT 22/15 A3011 RMK A01 T02150148  RH  065%=      5-min Rain = 0
KGO1 161546Z 19006KT 22/14 A3011 RMK A01 T02150143  RH  064%=      5-min Rain = 0
KGO1 161547Z 18005KT 21/14 A3011 RMK A01 T02140144  RH  064%=      5-min Rain = 0
KGO1 161548Z 18005KT 21/15 A3011 RMK A01 T02140147  RH  066%=      5-min Rain = 0
KGO1 161549Z 15007KT 21/15 A301 RMK A01 T02130146  RH  065%=      5-min Rain = 0
KGO1 161550Z 16007KT 21/15 A301 RMK A01 T02140145  RH  065%=      5-min Rain = 0
KGO1 161551Z 16007KT 22/16 A301 RMK A01 T02160158  RH  070%=      5-min Rain = 0
KGO1 161552Z 15007KT 22/15 A301 RMK A01 T02190151  RH  065%=      5-min Rain = 0
KGO1 161553Z 12008KT 22/16 A301 RMK A01 T02190157  RH  068%=      5-min Rain = 0
KGO1 161554Z 13009KT 22/16 A301 RMK A01 T02170155  RH  068%=      5-min Rain = 0
KGO1 161555Z 13008KT 21/15 A301 RMK A01 T02140153  RH  068%=      5-min Rain = 0
KGO1 161556Z 12009KT 21/16 A301 RMK A01 T02140158  RH  070%=      5-min Rain = 0
KGO1 161557Z 13008KT 22/15 A301 RMK A01 T02150154  RH  068%=      5-min Rain = 0
KGO1 161558Z 12009KT 22/16 A301 RMK A01 T02160155  RH  068%=      5-min Rain = 0
KGO1 161559Z 12010KT 22/16 A301 RMK A01 T02160156  RH  069%=      5-min Rain = 0
KGO1 161600Z 13008KT 22/15 A301 RMK A01 T02160152  RH  067%=      5-min Rain = 0
KGO1 161601Z 13009KT 22/15 A301 RMK A01 T02150154  RH  068%=      5-min Rain = 0
KGO1 161602Z 13009KT 22/15 A301 RMK A01 T02160149  RH  065%=      5-min Rain = 0
KGO1 161603Z 14009KT 22/15 A301 RMK A01 T02170149  RH  065%=      5-min Rain = 0
KGO1 161604Z 14009KT 22/15 A301 RMK A01 T02180149  RH  065%=      5-min Rain = 0
KGO1 161605Z 14008KT 22/15 A301 RMK A01 T02180148  RH  064%=      5-min Rain = 0
KGO1 161606Z 15007KT 22/15 A301 RMK A01 T02190148  RH  064%=      5-min Rain = 0
KGO1 161607Z 14007KT 22/15 A301 RMK A01 T02200150  RH  065%=      5-min Rain = 0
KGO1 161608Z 14009KT 22/15 A301 RMK A01 T02230153  RH  065%=      5-min Rain = 0
KGO1 161609Z 13008KT 22/15 A301 RMK A01 T02230153  RH  064%=      5-min Rain = 0
KGO1 161610Z 12008KT 22/15 A3011 RMK A01 T02230148  RH  062%=      5-min Rain = 0
KGO1 161611Z 14005KT 22/15 A301 RMK A01 T02220150  RH  064%=      5-min Rain = 0
KGO1 161612Z 12009KT 22/15 A3011 RMK A01 T02220149  RH  063%=      5-min Rain = 0
KGO1 161613Z 14010KT 22/15 A301 RMK A01 T02230147  RH  062%=      5-min Rain = 0
KGO1 161614Z 12009KT 22/14 A3011 RMK A01 T02230143  RH  061%=      5-min Rain = 0
KGO1 161615Z 13007KT 22/14 A3011 RMK A01 T02210142  RH  061%=      5-min Rain = 0
KGO1 161616Z 14009KT 22/15 A3011 RMK A01 T02200146  RH  063%=      5-min Rain = 0
KGO1 161617Z 12009KT 22/15 A3011 RMK A01 T02210147  RH  063%=      5-min Rain = 0
KGO1 161618Z 13009KT 22/15 A3011 RMK A01 T02230147  RH  062%=      5-min Rain = 0
KGO1 161619Z 14010KT 23/15 A3011 RMK A01 T02250149  RH  062%=      5-min Rain = 0
KGO1 161620Z 14012KT 23/15 A3011 RMK A01 T02270149  RH  061%=      5-min Rain = 0
KGO1 161621Z 14011KT 23/15 A3011 RMK A01 T02270147  RH  061%=      5-min Rain = 0
KGO1 161622Z 12010KT 23/15 A3011 RMK A01 T02260146  RH  060%=      5-min Rain = 0
KGO1 161623Z 12009KT 23/15 A3011 RMK A01 T02270148  RH  061%=      5-min Rain = 0
KGO1 161624Z 11010KT 23/15 A3011 RMK A01 T02280151  RH  062%=      5-min Rain = 0
KGO1 161625Z 12010KT 23/15 A3011 RMK A01 T02300150  RH  061%=      5-min Rain = 0
KGO1 161626Z 13008KT 23/15 A3011 RMK A01 T02290152  RH  062%=      5-min Rain = 0
KGO1 161627Z 14010KT 23/15 A3011 RMK A01 T02310152  RH  061%=      5-min Rain = 0
KGO1 161628Z 13011KT 23/15 A3011 RMK A01 T02320151  RH  061%=      5-min Rain = 0
KGO1 161629Z 14011KT 23/15 A3011 RMK A01 T02290150  RH  061%=      5-min Rain = 0
KGO1 161630Z 14009KT 23/15 A3011 RMK A01 T02260146  RH  061%=      5-min Rain = 0
KGO1 161631Z 14008KT 23/15 A3011 RMK A01 T02250147  RH  061%=      5-min Rain = 0
KGO1 161632Z 13008KT 23/15 A3011 RMK A01 T02270150  RH  062%=      5-min Rain = 0
KGO1 161633Z 14011KT 23/15 A3011 RMK A01 T02300150  RH  061%=      5-min Rain = 0
KGO1 161634Z 14010KT 23/15 A3011 RMK A01 T02310149  RH  060%=      5-min Rain = 0
KGO1 161635Z 14012KT 23/15 A3011 RMK A01 T02290150  RH  061%=      5-min Rain = 0
KGO1 161636Z 14012KT 23/15 A3011 RMK A01 T02260146  RH  061%=      5-min Rain = 0
KGO1 161637Z 13010KT 22/14 A3011 RMK A01 T02240144  RH  060%=      5-min Rain = 0
KGO1 161638Z 12011KT 22/15 A3011 RMK A01 T02240146  RH  061%=      5-min Rain = 0
KGO1 161639Z 13011KT 23/14 A3011 RMK A01 T02250143  RH  060%=      5-min Rain = 0
KGO1 161640Z 13012KT 23/15 A3011 RMK A01 T02250146  RH  061%=      5-min Rain = 0
KGO1 161641Z 13011KT 23/15 A3011 RMK A01 T02250149  RH  062%=      5-min Rain = 0
KGO1 161642Z 14011KT 23/15 A3011 RMK A01 T02270149  RH  061%=      5-min Rain = 0
KGO1 161643Z 15013G18KT 23/16 A3011 RMK A01 T02290155  RH  063%=      5-min Rain = 0
KGO1 161644Z 14012KT 23/15 A3011 RMK A01 T02320153  RH  061%=      5-min Rain = 0
KGO1 161645Z 14011KT 23/15 A3011 RMK A01 T02300152  RH  061%=      5-min Rain = 0
KGO1 161646Z 15014KT 23/15 A3011 RMK A01 T02300153  RH  062%=      5-min Rain = 0
KGO1 161647Z 13011KT 23/16 A3011 RMK A01 T02300156  RH  063%=      5-min Rain = 0
KGO1 161648Z 13011KT 23/16 A3011 RMK A01 T02320155  RH  062%=      5-min Rain = 0
KGO1 161649Z 13014KT 23/15 A3011 RMK A01 T02310150  RH  060%=      5-min Rain = 0
KGO1 161650Z 12012KT 23/15 A3011 RMK A01 T02280149  RH  061%=      5-min Rain = 0
KGO1 161651Z 12013KT 23/15 A3011 RMK A01 T02270149  RH  061%=      5-min Rain = 0
KGO1 161652Z 12014KT 23/15 A3011 RMK A01 T02280149  RH  061%=      5-min Rain = 0
KGO1 161653Z 14013KT 23/15 A3011 RMK A01 T02290148  RH  060%=      5-min Rain = 0
KGO1 161654Z 14015KT 23/15 A3011 RMK A01 T02310153  RH  061%=      5-min Rain = 0
KGO1 161655Z 14013KT 23/15 A3011 RMK A01 T02310149  RH  060%=      5-min Rain = 0
KGO1 161656Z 14015KT 23/15 A3011 RMK A01 T02290151  RH  061%=      5-min Rain = 0
KGO1 161657Z 13013KT 23/15 A3011 RMK A01 T02290149  RH  061%=      5-min Rain = 0
KGO1 161658Z 12011KT 23/15 A3011 RMK A01 T02270147  RH  061%=      5-min Rain = 0
KGO1 161659Z 13012KT 23/15 A3011 RMK A01 T02270151  RH  062%=      5-min Rain = 0
KGO1 161700Z 13014KT 23/15 A3011 RMK A01 T02280150  RH  062%=      5-min Rain = 0
KGO1 161701Z 14014KT 23/15 A3011 RMK A01 T02280152  RH  062%=      5-min Rain = 0
KGO1 161702Z 15013KT 23/15 A3011 RMK A01 T02310150  RH  060%=      5-min Rain = 0
KGO1 161703Z 13011KT 23/15 A3011 RMK A01 T02310150  RH  060%=      5-min Rain = 0
KGO1 161704Z 13011KT 23/15 A3011 RMK A01 T02330152  RH  060%=      5-min Rain = 0
KGO1 161705Z 14015KT 24/16 A3011 RMK A01 T02370156  RH  060%=      5-min Rain = 0
KGO1 161706Z 14013KT 24/15 A3011 RMK A01 T02420154  RH  058%=      5-min Rain = 0
KGO1 161707Z 15015KT 24/15 A3011 RMK A01 T02410151  RH  057%=      5-min Rain = 0
KGO1 161708Z 15013KT 24/15 A3011 RMK A01 T02360150  RH  059%=      5-min Rain = 0
KGO1 161709Z 14013KT 23/15 A3011 RMK A01 T02340149  RH  059%=      5-min Rain = 0
KGO1 161710Z 14011KT 23/15 A3011 RMK A01 T02340151  RH  060%=      5-min Rain = 0
KGO1 161711Z 12010KT 23/15 A3011 RMK A01 T02320149  RH  060%=      5-min Rain = 0
KGO1 161712Z 13010KT 23/15 A3011 RMK A01 T02310151  RH  060%=      5-min Rain = 0
KGO1 161713Z 14009KT 23/15 A3011 RMK A01 T02330149  RH  059%=      5-min Rain = 0
KGO1 161714Z 15010KT 23/15 A3011 RMK A01 T02330153  RH  061%=      5-min Rain = 0
KGO1 161715Z 15011KT 24/16 A3011 RMK A01 T02370155  RH  060%=      5-min Rain = 0
KGO1 161716Z 15010KT 24/16 A3011 RMK A01 T02400157  RH  059%=      5-min Rain = 0
KGO1 161717Z 15012KT 24/16 A3011 RMK A01 T02430156  RH  058%=      5-min Rain = 0
KGO1 161718Z 16012KT 24/16 A3011 RMK A01 T02420156  RH  059%=      5-min Rain = 0
KGO1 161719Z 16010KT 24/16 A3011 RMK A01 T02430157  RH  059%=      5-min Rain = 0
KGO1 161720Z 13010KT 24/15 A3011 RMK A01 T02420152  RH  057%=      5-min Rain = 0
KGO1 161721Z 13008KT 24/15 A3011 RMK A01 T02360149  RH  058%=      5-min Rain = 0
KGO1 161722Z 16008KT 23/15 A3011 RMK A01 T02320149  RH  059%=      5-min Rain = 0
KGO1 161723Z 17009KT 23/16 A301 RMK A01 T02340156  RH  062%=      5-min Rain = 0
KGO1 161724Z 18012KT 24/16 A301 RMK A01 T02380156  RH  060%=      5-min Rain = 0
KGO1 161725Z 16015KT 24/16 A301 RMK A01 T02400156  RH  059%=      5-min Rain = 0
KGO1 161726Z 16012G17KT 24/15 A301 RMK A01 T02410151  RH  057%=      5-min Rain = 0
KGO1 161727Z 16010KT 24/15 A301 RMK A01 T02370153  RH  059%=      5-min Rain = 0
KGO1 161728Z 17012KT 24/15 A301 RMK A01 T02370152  RH  059%=      5-min Rain = 0
KGO1 161729Z 16010KT 24/15 A301 RMK A01 T02370151  RH  059%=      5-min Rain = 0
KGO1 161730Z 15010KT 24/15 A301 RMK A01 T02350150  RH  059%=      5-min Rain = 0
KGO1 161731Z 16009KT 23/15 A301 RMK A01 T02340152  RH  060%=      5-min Rain = 0
KGO1 161732Z 16008KT 23/15 A301 RMK A01 T02340153  RH  060%=      5-min Rain = 0
KGO1 161733Z 13011KT 24/16 A301 RMK A01 T02380155  RH  059%=      5-min Rain = 0
KGO1 161734Z 13013G18KT 24/15 A301 RMK A01 T02380152  RH  058%=      5-min Rain = 0
KGO1 161735Z 16012KT 24/15 A301 RMK A01 T02380153  RH  059%=      5-min Rain = 0
KGO1 161736Z 16011KT 24/15 A3009 RMK A01 T02380152  RH  059%=      5-min Rain = 0
KGO1 161737Z 16010KT 24/15 A3009 RMK A01 T02360149  RH  058%=      5-min Rain = 0
KGO1 161738Z 16008KT 24/15 A3009 RMK A01 T02360150  RH  058%=      5-min Rain = 0
KGO1 161739Z 14007KT 24/15 A3009 RMK A01 T02360151  RH  059%=      5-min Rain = 0
KGO1 161740Z 15012G17KT 24/16 A3009 RMK A01 T02380155  RH  060%=      5-min Rain = 0
KGO1 161741Z 15013KT 24/15 A3009 RMK A01 T02420154  RH  058%=      5-min Rain = 0
KGO1 161742Z 16011KT 24/15 A3009 RMK A01 T02430154  RH  057%=      5-min Rain = 0
KGO1 161743Z 17008KT 24/15 A3009 RMK A01 T02420151  RH  057%=      5-min Rain = 0
KGO1 161744Z 16012KT 24/16 A3009 RMK A01 T02420155  RH  058%=      5-min Rain = 0
KGO1 161745Z 13009KT 24/15 A3009 RMK A01 T02440150  RH  056%=      5-min Rain = 0
KGO1 161746Z 16011KT 24/16 A3009 RMK A01 T02430156  RH  058%=      5-min Rain = 0
KGO1 161747Z 16014KT 25/16 A3009 RMK A01 T02490158  RH  057%=      5-min Rain = 0
KGO1 161748Z 16010KT 25/16 A3009 RMK A01 T02500155  RH  055%=      5-min Rain = 0
KGO1 161749Z 16010KT 25/15 A3008 RMK A01 T02480152  RH  055%=      5-min Rain = 0
KGO1 161750Z 18010KT 25/15 A3008 RMK A01 T02450153  RH  056%=      5-min Rain = 0
KGO1 161751Z 18014KT 25/15 A3008 RMK A01 T02460153  RH  056%=      5-min Rain = 0
KGO1 161752Z 17014KT 25/16 A3008 RMK A01 T02530158  RH  056%=      5-min Rain = 0
KGO1 161753Z 17014KT 25/15 A3008 RMK A01 T02520154  RH  055%=      5-min Rain = 0
KGO1 161754Z 17012KT 25/16 A3008 RMK A01 T02500155  RH  055%=      5-min Rain = 0
KGO1 161755Z 17011KT 25/15 A3008 RMK A01 T02500153  RH  055%=      5-min Rain = 0
KGO1 161756Z 16011KT 25/15 A3008 RMK A01 T02500153  RH  055%=      5-min Rain = 0
KGO1 161757Z 15012KT 25/15 A3008 RMK A01 T02540154  RH  054%=      5-min Rain = 0
KGO1 161758Z 15013G19KT 26/16 A3008 RMK A01 T02550155  RH  054%=      5-min Rain = 0
KGO1 161759Z 17017G22KT 26/16 A3007 RMK A01 T02570156  RH  054%=      5-min Rain = 0
KGO1 161800Z 17015KT 26/16 A3008 RMK A01 T02590155  RH  053%=      5-min Rain = 0
KGO1 161801Z 16012KT 26/15 A3008 RMK A01 T02570153  RH  053%=      5-min Rain = 0
KGO1 161802Z 19014G21KT 25/15 A3008 RMK A01 T02540153  RH  053%=      5-min Rain = 0
KGO1 161803Z 19009KT 25/15 A3008 RMK A01 T02500149  RH  053%=      5-min Rain = 0
KGO1 161804Z 18010G15KT 25/15 A3008 RMK A01 T02480151  RH  055%=      5-min Rain = 0
KGO1 161805Z 18011G16KT 25/15 A3008 RMK A01 T02480154  RH  056%=      5-min Rain = 0
KGO1 161806Z 17013KT 25/16 A3007 RMK A01 T02540156  RH  055%=      5-min Rain = 0
KGO1 161807Z 18011KT 26/15 A3008 RMK A01 T02570154  RH  053%=      5-min Rain = 0
KGO1 161808Z 16010KT 26/16 A3007 RMK A01 T02560157  RH  054%=      5-min Rain = 0
KGO1 161809Z 16013KT 26/16 A3007 RMK A01 T02590156  RH  053%=      5-min Rain = 0
KGO1 161810Z 18013KT 26/16 A3007 RMK A01 T02580155  RH  053%=      5-min Rain = 0
KGO1 161811Z 18011G16KT 26/15 A3007 RMK A01 T02550152  RH  053%=      5-min Rain = 0
KGO1 161812Z 16010KT 25/16 A3007 RMK A01 T02520155  RH  055%=      5-min Rain = 0
KGO1 161813Z 15014KT 25/15 A3007 RMK A01 T02530153  RH  054%=      5-min Rain = 0
KGO1 161814Z 15009KT 25/15 A3007 RMK A01 T02520153  RH  054%=      5-min Rain = 0
KGO1 161815Z 16013G18KT 25/16 A3007 RMK A01 T02530155  RH  055%=      5-min Rain = 0
KGO1 161816Z 19012KT 26/15 A3007 RMK A01 T02580153  RH  052%=      5-min Rain = 0
KGO1 161817Z 18016KT 26/15 A3007 RMK A01 T02610151  RH  051%=      5-min Rain = 0
KGO1 161818Z 17013KT 26/15 A3007 RMK A01 T02640153  RH  051%=      5-min Rain = 0
KGO1 161819Z 17013KT 27/16 A3007 RMK A01 T02650155  RH  051%=      5-min Rain = 0
KGO1 161820Z 18015KT 27/16 A3007 RMK A01 T02660155  RH  051%=      5-min Rain = 0
KGO1 161821Z 18013KT 26/15 A3007 RMK A01 T02630152  RH  051%=      5-min Rain = 0
KGO1 161822Z 16010KT 26/15 A3007 RMK A01 T02560151  RH  052%=      5-min Rain = 0
KGO1 161823Z 18010KT 26/15 A3007 RMK A01 T02550151  RH  053%=      5-min Rain = 0
KGO1 161824Z 18007KT 25/15 A3007 RMK A01 T02540153  RH  054%=      5-min Rain = 0
KGO1 161825Z 18010KT 26/16 A3007 RMK A01 T02600159  RH  054%=      5-min Rain = 0
KGO1 161826Z 16012KT 27/16 A3006 RMK A01 T02660157  RH  051%=      5-min Rain = 0
KGO1 161827Z 15011KT 27/15 A3006 RMK A01 T02660153  RH  050%=      5-min Rain = 0
KGO1 161828Z 16013G19KT 26/15 A3006 RMK A01 T02600150  RH  051%=      5-min Rain = 0
KGO1 161829Z 18015KT 26/15 A3006 RMK A01 T02580152  RH  052%=      5-min Rain = 0
KGO1 161830Z 17017KT 26/15 A3006 RMK A01 T02610153  RH  052%=      5-min Rain = 0
KGO1 161831Z 17018KT 26/15 A3006 RMK A01 T02620152  RH  051%=      5-min Rain = 0
KGO1 161832Z 17017KT 26/15 A3006 RMK A01 T02620153  RH  051%=      5-min Rain = 0
KGO1 161833Z 17016G23KT 26/15 A3006 RMK A01 T02640153  RH  050%=      5-min Rain = 0
KGO1 161834Z 19012KT 27/15 A3006 RMK A01 T02660154  RH  050%=      5-min Rain = 0
KGO1 161835Z 17011KT 26/15 A3006 RMK A01 T02640153  RH  050%=      5-min Rain = 0
KGO1 161836Z 18009KT 26/15 A3006 RMK A01 T02630151  RH  050%=      5-min Rain = 0
KGO1 161837Z 17008KT 26/15 A3006 RMK A01 T02590150  RH  051%=      5-min Rain = 0
KGO1 161838Z 16010KT 26/15 A3006 RMK A01 T02580153  RH  052%=      5-min Rain = 0
KGO1 161839Z 17012KT 26/15 A3006 RMK A01 T02610152  RH  051%=      5-min Rain = 0
KGO1 161840Z 17012KT 27/15 A3006 RMK A01 T02650152  RH  050%=      5-min Rain = 0
KGO1 161841Z 20012KT 27/15 A3006 RMK A01 T02680154  RH  050%=      5-min Rain = 0
KGO1 161842Z 22013KT 27/15 A3006 RMK A01 T02710151  RH  048%=      5-min Rain = 0
KGO1 161843Z 21010KT 27/15 A3006 RMK A01 T02660147  RH  048%=      5-min Rain = 0
KGO1 161844Z 19008KT 26/15 A3006 RMK A01 T02620151  RH  050%=      5-min Rain = 0
KGO1 161845Z 19014KT 27/15 A3006 RMK A01 T02670153  RH  050%=      5-min Rain = 0
KGO1 161846Z 20015KT 27/15 A3006 RMK A01 T02700151  RH  048%=      5-min Rain = 0
KGO1 161847Z 20009G14KT 27/15 A3006 RMK A01 T02690150  RH  048%=      5-min Rain = 0
KGO1 161848Z 19008KT 26/15 A3006 RMK A01 T02640148  RH  049%=      5-min Rain = 0
KGO1 161849Z 18011KT 26/15 A3006 RMK A01 T02600149  RH  051%=      5-min Rain = 0
KGO1 161850Z 18009KT 26/15 A3006 RMK A01 T02590149  RH  051%=      5-min Rain = 0
KGO1 161851Z 18011KT 26/15 A3005 RMK A01 T02610153  RH  051%=      5-min Rain = 0
KGO1 161852Z 17012KT 27/16 A3005 RMK A01 T02680155  RH  050%=      5-min Rain = 0
KGO1 161853Z 17014KT 27/15 A3005 RMK A01 T02710152  RH  048%=      5-min Rain = 0
KGO1 161854Z 17015KT 27/15 A3005 RMK A01 T02710151  RH  048%=      5-min Rain = 0
KGO1 161855Z 17019KT 27/15 A3005 RMK A01 T02700151  RH  048%=      5-min Rain = 0
KGO1 161856Z 18015G20KT 27/15 A3005 RMK A01 T02680149  RH  048%=      5-min Rain = 0
KGO1 161857Z 20013KT 27/15 A3005 RMK A01 T02660150  RH  049%=      5-min Rain = 0
KGO1 161858Z 21012G17KT 27/15 A3005 RMK A01 T02650150  RH  049%=      5-min Rain = 0
KGO1 161859Z 19010G16KT 27/15 A3005 RMK A01 T02670152  RH  049%=      5-min Rain = 0
KGO1 161900Z 17010KT 27/15 A3005 RMK A01 T02700154  RH  049%=      5-min Rain = 0
KGO1 161901Z 16008KT 27/15 A3005 RMK A01 T02710152  RH  048%=      5-min Rain = 0
KGO1 161902Z 13007G12KT 27/15 A3005 RMK A01 T02690151  RH  048%=      5-min Rain = 0
KGO1 161903Z 20013G19KT 27/15 A3004 RMK A01 T02720153  RH  048%=      5-min Rain = 0
KGO1 161904Z 19016KT 27/15 A3005 RMK A01 T02740150  RH  047%=      5-min Rain = 0
KGO1 161905Z 18017KT 27/15 A3005 RMK A01 T02720150  RH  047%=      5-min Rain = 0
KGO1 161906Z 18016KT 27/15 A3005 RMK A01 T02720149  RH  047%=      5-min Rain = 0
KGO1 161907Z 18016KT 27/15 A3005 RMK A01 T02740150  RH  047%=      5-min Rain = 0
KGO1 161908Z 18011KT 28/15 A3005 RMK A01 T02770149  RH  046%=      5-min Rain = 0
KGO1 161909Z 16011G18KT 27/15 A3005 RMK A01 T02710149  RH  047%=      5-min Rain = 0
KGO1 161910Z 15013KT 27/15 A3005 RMK A01 T02700150  RH  048%=      5-min Rain = 0
KGO1 161911Z 16012KT 27/15 A3005 RMK A01 T02700149  RH  048%=      5-min Rain = 0
KGO1 161912Z 18008KT 27/15 A3005 RMK A01 T02700147  RH  047%=      5-min Rain = 0
KGO1 161913Z 17009KT 27/15 A3005 RMK A01 T02670148  RH  048%=      5-min Rain = 0
KGO1 161914Z 17008KT 27/15 A3005 RMK A01 T02650150  RH  049%=      5-min Rain = 0
KGO1 161915Z 17006G11KT 27/15 A3005 RMK A01 T02660150  RH  049%=      5-min Rain = 0
KGO1 161916Z 18010KT 27/15 A3005 RMK A01 T02680151  RH  048%=      5-min Rain = 0
KGO1 161917Z 18009KT 27/15 A3005 RMK A01 T02710148  RH  047%=      5-min Rain = 0
KGO1 161918Z 18010KT 27/15 A3005 RMK A01 T02710151  RH  048%=      5-min Rain = 0
KGO1 161919Z 19009KT 27/15 A3005 RMK A01 T02730152  RH  048%=      5-min Rain = 0
KGO1 161920Z 18009KT 28/15 A3005 RMK A01 T02760151  RH  047%=      5-min Rain = 0
KGO1 161921Z 17008KT 28/15 A3005 RMK A01 T02760153  RH  047%=      5-min Rain = 0
KGO1 161922Z 16012KT 28/15 A3005 RMK A01 T02790152  RH  046%=      5-min Rain = 0
KGO1 161923Z 16011KT 28/15 A3005 RMK A01 T02790151  RH  045%=      5-min Rain = 0
KGO1 161924Z 17009KT 28/15 A3005 RMK A01 T02760148  RH  046%=      5-min Rain = 0
KGO1 161925Z 17013KT 27/15 A3005 RMK A01 T02740149  RH  046%=      5-min Rain = 0
KGO1 161926Z 18018KT 28/15 A3004 RMK A01 T02780152  RH  046%=      5-min Rain = 0
KGO1 161927Z 20013G18KT 28/15 A3005 RMK A01 T02830149  RH  044%=      5-min Rain = 0
KGO1 161928Z 19012KT 28/15 A3005 RMK A01 T02780147  RH  045%=      5-min Rain = 0
KGO1 161929Z 20013KT 27/15 A3005 RMK A01 T02740147  RH  046%=      5-min Rain = 0
KGO1 161930Z 21012KT 28/15 A3005 RMK A01 T02750148  RH  046%=      5-min Rain = 0
KGO1 161931Z 18012KT 27/15 A3005 RMK A01 T02740148  RH  046%=      5-min Rain = 0
KGO1 161932Z 17017G22KT 28/15 A3004 RMK A01 T02770152  RH  046%=      5-min Rain = 0
KGO1 161933Z 18011G17KT 28/15 A3005 RMK A01 T02810147  RH  044%=      5-min Rain = 0
KGO1 161934Z 17008KT 28/15 A3005 RMK A01 T02750148  RH  046%=      5-min Rain = 0
KGO1 161935Z 18012KT 28/15 A3005 RMK A01 T02760151  RH  047%=      5-min Rain = 0
KGO1 161936Z 17014KT 28/15 A3004 RMK A01 T02800150  RH  045%=      5-min Rain = 0
KGO1 161937Z 17011KT 28/15 A3005 RMK A01 T02790149  RH  045%=      5-min Rain = 0
KGO1 161938Z 15010KT 27/15 A3005 RMK A01 T02740146  RH  045%=      5-min Rain = 0
KGO1 161939Z 13007KT 27/15 A3005 RMK A01 T02690146  RH  047%=      5-min Rain = 0
KGO1 161940Z 16010KT 27/15 A3004 RMK A01 T02700150  RH  048%=      5-min Rain = 0
KGO1 161941Z 18009KT 28/15 A3004 RMK A01 T02790152  RH  046%=      5-min Rain = 0
KGO1 161942Z 19014KT 28/15 A3004 RMK A01 T02820149  RH  044%=      5-min Rain = 0
KGO1 161943Z 20012G17KT 28/15 A3004 RMK A01 T02790147  RH  044%=      5-min Rain = 0
KGO1 161944Z 20011KT 27/15 A3004 RMK A01 T02730145  RH  046%=      5-min Rain = 0
KGO1 161945Z 18011KT 27/15 A3004 RMK A01 T02700146  RH  047%=      5-min Rain = 0
KGO1 161946Z 17011KT 27/15 A3004 RMK A01 T02730149  RH  047%=      5-min Rain = 0
KGO1 161947Z 17010KT 28/15 A3004 RMK A01 T02770150  RH  046%=      5-min Rain = 0
KGO1 161948Z 17013KT 28/15 A3004 RMK A01 T02840153  RH  045%=      5-min Rain = 0
KGO1 161949Z 17011KT 29/15 A3004 RMK A01 T02880152  RH  043%=      5-min Rain = 0
KGO1 161950Z 20012KT 29/15 A3004 RMK A01 T02860148  RH  043%=      5-min Rain = 0
KGO1 161951Z 17007KT 28/14 A3005 RMK A01 T02790143  RH  043%=      5-min Rain = 0
KGO1 161952Z 15008KT 28/15 A3004 RMK A01 T02750148  RH  046%=      5-min Rain = 0
KGO1 161953Z 14011KT 28/15 A3004 RMK A01 T02780148  RH  045%=      5-min Rain = 0
KGO1 161954Z 16012KT 28/15 A3004 RMK A01 T02810149  RH  045%=      5-min Rain = 0
KGO1 161955Z 16011KT 28/15 A3004 RMK A01 T02840148  RH  044%=      5-min Rain = 0
KGO1 161956Z 18012KT 29/15 A3004 RMK A01 T02850148  RH  043%=      5-min Rain = 0
KGO1 161957Z 19015KT 29/15 A3004 RMK A01 T02850149  RH  043%=      5-min Rain = 0
KGO1 161958Z 20016KT 29/15 A3004 RMK A01 T02850150  RH  044%=      5-min Rain = 0
KGO1 161959Z 18012KT 29/15 A3004 RMK A01 T02860148  RH  043%=      5-min Rain = 0
KGO1 162000Z 18013KT 29/15 A3004 RMK A01 T02860148  RH  043%=      5-min Rain = 0
KGO1 162001Z 19012G18KT 29/15 A3004 RMK A01 T02850149  RH  043%=      5-min Rain = 0
KGO1 162002Z 20015KT 29/15 A3004 RMK A01 T02870149  RH  043%=      5-min Rain = 0
KGO1 162003Z 21014KT 29/15 A3004 RMK A01 T02870149  RH  043%=      5-min Rain = 0
KGO1 162004Z 20013KT 28/15 A3004 RMK A01 T02830146  RH  043%=      5-min Rain = 0
KGO1 162005Z 18012KT 28/15 A3004 RMK A01 T02790146  RH  044%=      5-min Rain = 0
KGO1 162006Z 21011KT 28/15 A3004 RMK A01 T02750145  RH  045%=      5-min Rain = 0
KGO1 162007Z 20008KT 27/15 A3004 RMK A01 T02720145  RH  046%=      5-min Rain = 0
KGO1 162008Z 17011KT 27/15 A3004 RMK A01 T02740151  RH  047%=      5-min Rain = 0
KGO1 162009Z 16011KT 28/15 A3004 RMK A01 T02820150  RH  045%=      5-min Rain = 0
KGO1 162010Z 19009KT 29/15 A3004 RMK A01 T02850151  RH  044%=      5-min Rain = 0
KGO1 162011Z 20011G17KT 29/15 A3004 RMK A01 T02900151  RH  043%=      5-min Rain = 0
KGO1 162012Z 20011KT 29/15 A3004 RMK A01 T02940147  RH  041%=      5-min Rain = 0
KGO1 162013Z 19007KT 30/15 A3004 RMK A01 T02950145  RH  040%=      5-min Rain = 0
KGO1 162014Z 19008KT 29/14 A3004 RMK A01 T02900143  RH  041%=      5-min Rain = 0
KGO1 162015Z 19009KT 28/14 A3004 RMK A01 T02840141  RH  042%=      5-min Rain = 0
KGO1 162016Z 21012KT 28/14 A3004 RMK A01 T02780142  RH  044%=      5-min Rain = 0
KGO1 162017Z 22008KT 28/14 A3004 RMK A01 T02760143  RH  044%=      5-min Rain = 0
KGO1 162018Z 20009KT 28/14 A3004 RMK A01 T02750144  RH  045%=      5-min Rain = 0
KGO1 162019Z 21010KT 28/14 A3004 RMK A01 T02750144  RH  045%=      5-min Rain = 0
KGO1 162020Z 18013G18KT 27/15 A3004 RMK A01 T02740145  RH  045%=      5-min Rain = 0
KGO1 162021Z 18012KT 28/14 A3004 RMK A01 T02750143  RH  044%=      5-min Rain = 0
KGO1 162022Z 18010KT 27/14 A3004 RMK A01 T02720143  RH  045%=      5-min Rain = 0
KGO1 162023Z 18011KT 27/14 A3004 RMK A01 T02710144  RH  046%=      5-min Rain = 0
KGO1 162024Z 18012KT 27/14 A3004 RMK A01 T02730144  RH  045%=      5-min Rain = 0
KGO1 162025Z 19010KT 28/14 A3004 RMK A01 T02750144  RH  045%=      5-min Rain = 0
KGO1 162026Z 18013G18KT 28/14 A3004 RMK A01 T02760144  RH  045%=      5-min Rain = 0
KGO1 162027Z 21013KT 28/15 A3004 RMK A01 T02760145  RH  045%=      5-min Rain = 0
KGO1 162028Z 22013KT 28/15 A3004 RMK A01 T02780146  RH  044%=      5-min Rain = 0
KGO1 162029Z 21014KT 28/15 A3004 RMK A01 T02820147  RH  044%=      5-min Rain = 0
KGO1 162030Z 22014KT 29/15 A3004 RMK A01 T02860147  RH  043%=      5-min Rain = 0
KGO1 162031Z 20012KT 29/15 A3004 RMK A01 T02900145  RH  041%=      5-min Rain = 0
KGO1 162032Z 19010G15KT 29/15 A3004 RMK A01 T02890145  RH  041%=      5-min Rain = 0
KGO1 162033Z 18008G13KT 29/14 A3004 RMK A01 T02880144  RH  041%=      5-min Rain = 0
KGO1 162034Z 16011KT 29/15 A3004 RMK A01 T02890148  RH  042%=      5-min Rain = 0
KGO1 162035Z 16011G18KT 29/15 A3003 RMK A01 T02940147  RH  041%=      5-min Rain = 0
KGO1 162036Z 18017KT 30/15 A3003 RMK A01 T02950147  RH  041%=      5-min Rain = 0
KGO1 162037Z 18013KT 29/14 A3004 RMK A01 T02910143  RH  040%=      5-min Rain = 0
KGO1 162038Z 18013KT 28/14 A3004 RMK A01 T02830142  RH  042%=      5-min Rain = 0
KGO1 162039Z 17013KT 28/14 A3003 RMK A01 T02790142  RH  043%=      5-min Rain = 0
KGO1 162040Z 18014KT 28/15 A3003 RMK A01 T02810146  RH  044%=      5-min Rain = 0
KGO1 162041Z 19011KT 29/15 A3003 RMK A01 T02850145  RH  042%=      5-min Rain = 0
KGO1 162042Z 19013KT 29/15 A3003 RMK A01 T02850145  RH  042%=      5-min Rain = 0
KGO1 162043Z 20016KT 29/15 A3003 RMK A01 T02870146  RH  042%=      5-min Rain = 0
KGO1 162044Z 19014KT 29/15 A3003 RMK A01 T02930145  RH  041%=      5-min Rain = 0
KGO1 162045Z 21011KT 29/15 A3003 RMK A01 T02910145  RH  041%=      5-min Rain = 0
KGO1 162046Z 22007KT 29/14 A3003 RMK A01 T02910143  RH  040%=      5-min Rain = 0
KGO1 162047Z 22005KT 29/14 A3003 RMK A01 T02940141  RH  039%=      5-min Rain = 0
KGO1 162048Z 18010G15KT 29/14 A3003 RMK A01 T02940143  RH  040%=      5-min Rain = 0
KGO1 162049Z 19011KT 29/14 A3003 RMK A01 T02930141  RH  040%=      5-min Rain = 0
KGO1 162050Z 20016KT 29/14 A3003 RMK A01 T02940143  RH  040%=      5-min Rain = 0
KGO1 162051Z 21017KT 30/15 A3003 RMK A01 T02960146  RH  040%=      5-min Rain = 0
KGO1 162052Z 21013KT 30/14 A3003 RMK A01 T02960143  RH  039%=      5-min Rain = 0
KGO1 162053Z 19016KT 30/15 A3003 RMK A01 T02950147  RH  041%=      5-min Rain = 0
KGO1 162054Z 20013KT 30/14 A3003 RMK A01 T02980144  RH  039%=      5-min Rain = 0
KGO1 162055Z 20010KT 30/14 A3003 RMK A01 T02970142  RH  039%=      5-min Rain = 0
KGO1 162056Z 20007KT 29/14 A3003 RMK A01 T02930143  RH  040%=      5-min Rain = 0
KGO1 162057Z 17013KT 29/15 A3003 RMK A01 T02930146  RH  041%=      5-min Rain = 0
KGO1 162058Z 17015KT 29/15 A3003 RMK A01 T02940145  RH  040%=      5-min Rain = 0
KGO1 162059Z 18012KT 30/15 A3003 RMK A01 T02950145  RH  040%=      5-min Rain = 0
KGO1 162100Z 18009KT 29/15 A3003 RMK A01 T02930145  RH  040%=      5-min Rain = 0
KGO1 162101Z 17012G17KT 29/15 A3002 RMK A01 T02910146  RH  041%=      5-min Rain = 0
KGO1 162102Z 18017KT 29/14 A3002 RMK A01 T02940144  RH  040%=      5-min Rain = 0
KGO1 162103Z 20018KT 30/14 A3002 RMK A01 T02960143  RH  039%=      5-min Rain = 0
KGO1 162104Z 20018KT 30/14 A3002 RMK A01 T02970141  RH  039%=      5-min Rain = 0
KGO1 162105Z 19018KT 30/14 A3002 RMK A01 T02970142  RH  039%=      5-min Rain = 0
KGO1 162106Z 19015G21KT 30/14 A3002 RMK A01 T02980140  RH  038%=      5-min Rain = 0
KGO1 162107Z 19013KT 30/14 A3002 RMK A01 T02980140  RH  038%=      5-min Rain = 0
KGO1 162108Z 21012KT 30/14 A3002 RMK A01 T02980140  RH  038%=      5-min Rain = 0
KGO1 162109Z 21013KT 30/14 A3002 RMK A01 T02970140  RH  038%=      5-min Rain = 0
KGO1 162110Z 20011KT 29/14 A3002 RMK A01 T02940141  RH  039%=      5-min Rain = 0
KGO1 162111Z 20015KT 29/14 A3002 RMK A01 T02920143  RH  040%=      5-min Rain = 0
KGO1 162112Z 18016KT 30/15 A3002 RMK A01 T02950145  RH  040%=      5-min Rain = 0
KGO1 162113Z 18015KT 30/14 A3002 RMK A01 T02980144  RH  039%=      5-min Rain = 0
KGO1 162114Z 18011KT 30/15 A3002 RMK A01 T02980145  RH  039%=      5-min Rain = 0
KGO1 162115Z 17013KT 30/14 A3001 RMK A01 T02990143  RH  039%=      5-min Rain = 0
KGO1 162116Z 17014KT 30/14 A3001 RMK A01 T02990142  RH  038%=      5-min Rain = 0
KGO1 162117Z 19017KT 30/14 A3001 RMK A01 T02980142  RH  039%=      5-min Rain = 0
KGO1 162118Z 19016KT 30/14 A3001 RMK A01 T02970142  RH  039%=      5-min Rain = 0
KGO1 162119Z 19012KT 29/14 A3001 RMK A01 T02940143  RH  040%=      5-min Rain = 0
KGO1 162120Z 18015KT 30/15 A3001 RMK A01 T02990147  RH  040%=      5-min Rain = 0
KGO1 162121Z 19015KT 30/14 A3001 RMK A01 T03010143  RH  038%=      5-min Rain = 0
KGO1 162122Z 18014KT 30/14 A3001 RMK A01 T02960144  RH  039%=      5-min Rain = 0
KGO1 162123Z 16013KT 30/14 A3001 RMK A01 T02950143  RH  039%=      5-min Rain = 0
KGO1 162124Z 16013KT 30/14 A3001 RMK A01 T02960142  RH  039%=      5-min Rain = 0
KGO1 162125Z 16011KT 30/14 A3001 RMK A01 T02970143  RH  039%=      5-min Rain = 0
KGO1 162126Z 18012G19KT 30/14 A3001 RMK A01 T02990144  RH  039%=      5-min Rain = 0
KGO1 162127Z 20014KT 30/14 A3001 RMK A01 T03010144  RH  038%=      5-min Rain = 0
KGO1 162128Z 20014KT 30/15 A3001 RMK A01 T03030146  RH  039%=      5-min Rain = 0
KGO1 162129Z 21013KT 31/14 A3001 RMK A01 T03090144  RH  037%=      5-min Rain = 0
KGO1 162130Z 21011KT 30/14 A3001 RMK A01 T03040141  RH  037%=      5-min Rain = 0
KGO1 162131Z 20011KT 30/14 A3001 RMK A01 T03000141  RH  038%=      5-min Rain = 0
KGO1 162132Z 20012G17KT 30/14 A3001 RMK A01 T02990141  RH  038%=      5-min Rain = 0
KGO1 162133Z 20010KT 30/14 A3001 RMK A01 T02970140  RH  038%=      5-min Rain = 0
KGO1 162134Z 16011KT 30/14 A3001 RMK A01 T02980142  RH  039%=      5-min Rain = 0
KGO1 162135Z 15015KT 30/14 A30 RMK A01 T03010142  RH  038%=      5-min Rain = 0
KGO1 162136Z 18014KT 30/14 A30 RMK A01 T03040144  RH  038%=      5-min Rain = 0
KGO1 162137Z 19019KT 31/14 A30 RMK A01 T03070141  RH  037%=      5-min Rain = 0
KGO1 162138Z 18018KT 31/14 A30 RMK A01 T03060139  RH  036%=      5-min Rain = 0
KGO1 162139Z 18015KT 30/14 A30 RMK A01 T03010138  RH  037%=      5-min Rain = 0
KGO1 162140Z 19011KT 30/14 A30 RMK A01 T02980138  RH  038%=      5-min Rain = 0
KGO1 162141Z 17010KT 30/14 A30 RMK A01 T02950138  RH  038%=      5-min Rain = 0
KGO1 162142Z 18011KT 30/14 A30 RMK A01 T02960139  RH  038%=      5-min Rain = 0
KGO1 162143Z 18009G14KT 30/14 A30 RMK A01 T02970138  RH  038%=      5-min Rain = 0
KGO1 162144Z 15010KT 30/14 A30 RMK A01 T02980137  RH  038%=      5-min Rain = 0
KGO1 162145Z 15009KT 30/14 A30 RMK A01 T02980138  RH  038%=      5-min Rain = 0
KGO1 162146Z 21012KT 31/14 A30 RMK A01 T03050141  RH  037%=      5-min Rain = 0
KGO1 162147Z 20015KT 31/14 A30 RMK A01 T03080141  RH  036%=      5-min Rain = 0
KGO1 162148Z 19014KT 31/14 A30 RMK A01 T03050138  RH  036%=      5-min Rain = 0
KGO1 162149Z 19011KT 30/14 A30 RMK A01 T03020137  RH  036%=      5-min Rain = 0
KGO1 162150Z 16011G16KT 30/14 A30 RMK A01 T03020136  RH  036%=      5-min Rain = 0
KGO1 162151Z 17013KT 30/14 A30 RMK A01 T03040135  RH  036%=      5-min Rain = 0
KGO1 162152Z 17010KT 30/13 A30 RMK A01 T03030134  RH  035%=      5-min Rain = 0
KGO1 162153Z 17011KT 30/13 A30 RMK A01 T03020131  RH  035%=      5-min Rain = 0
KGO1 162154Z 17012KT 30/13 A30 RMK A01 T03020130  RH  035%=      5-min Rain = 0
KGO1 162155Z 17011KT 30/13 A30 RMK A01 T03010131  RH  035%=      5-min Rain = 0
KGO1 162156Z 18014KT 30/13 A2999 RMK A01 T02980134  RH  037%=      5-min Rain = 0
KGO1 162157Z 16016KT 30/14 A2999 RMK A01 T03010140  RH  037%=      5-min Rain = 0
KGO1 162158Z 16012KT 30/14 A2999 RMK A01 T03020138  RH  037%=      5-min Rain = 0
KGO1 162159Z 17011KT 30/14 A2999 RMK A01 T02990138  RH  037%=      5-min Rain = 0
KGO1 162200Z 19009KT 30/14 A2999 RMK A01 T02980138  RH  038%=      5-min Rain = 0
KGO1 162201Z 21011KT 30/13 A2999 RMK A01 T03000134  RH  036%=      5-min Rain = 0
KGO1 162202Z 22010KT 30/13 A2999 RMK A01 T03030133  RH  035%=      5-min Rain = 0
KGO1 162203Z 19014KT 30/13 A2999 RMK A01 T03040134  RH  035%=      5-min Rain = 0
KGO1 162204Z 19013KT 30/13 A2999 RMK A01 T03040131  RH  035%=      5-min Rain = 0
KGO1 162205Z 20006KT 30/13 A2999 RMK A01 T03000131  RH  036%=      5-min Rain = 0
KGO1 162206Z 21007KT 30/14 A2999 RMK A01 T02970135  RH  037%=      5-min Rain = 0
KGO1 162207Z 16011G18KT 30/14 A2999 RMK A01 T02970136  RH  037%=      5-min Rain = 0
KGO1 162208Z 20017G23KT 30/14 A2998 RMK A01 T03020136  RH  036%=      5-min Rain = 0
KGO1 162209Z 20014KT 31/14 A2999 RMK A01 T03060135  RH  035%=      5-min Rain = 0
KGO1 162210Z 17016KT 31/13 A2999 RMK A01 T03090134  RH  034%=      5-min Rain = 0
KGO1 162211Z 16011KT 30/13 A2999 RMK A01 T03040131  RH  035%=      5-min Rain = 0
KGO1 162212Z 18010KT 30/13 A2999 RMK A01 T02990131  RH  036%=      5-min Rain = 0
KGO1 162213Z 17013KT 30/13 A2999 RMK A01 T02980132  RH  036%=      5-min Rain = 0
KGO1 162214Z 16008KT 30/13 A2999 RMK A01 T02980130  RH  036%=      5-min Rain = 0
KGO1 162215Z 16006KT 30/13 A2999 RMK A01 T02950131  RH  037%=      5-min Rain = 0
KGO1 162216Z 16006KT 30/13 A2999 RMK A01 T02960130  RH  036%=      5-min Rain = 0
KGO1 162217Z 17006KT 30/13 A2999 RMK A01 T02950132  RH  037%=      5-min Rain = 0
KGO1 162218Z 15012KT 30/14 A2999 RMK A01 T03000135  RH  036%=      5-min Rain = 0
KGO1 162219Z 16012G17KT 31/14 A2999 RMK A01 T03060136  RH  036%=      5-min Rain = 0
KGO1 162220Z 17014KT 31/14 A2999 RMK A01 T03080136  RH  035%=      5-min Rain = 0
KGO1 162221Z 17014KT 30/13 A2999 RMK A01 T03030132  RH  035%=      5-min Rain = 0
KGO1 162222Z 17014KT 30/13 A2999 RMK A01 T02990132  RH  036%=      5-min Rain = 0
KGO1 162223Z 17014KT 30/13 A2999 RMK A01 T02960133  RH  037%=      5-min Rain = 0
KGO1 162224Z 16016KT 30/13 A2999 RMK A01 T02960132  RH  037%=      5-min Rain = 0
KGO1 162225Z 16013G18KT 30/13 A2999 RMK A01 T02960130  RH  036%=      5-min Rain = 0
KGO1 162226Z 15010KT 30/13 A2998 RMK A01 T02950131  RH  036%=      5-min Rain = 0
KGO1 162227Z 17012KT 30/13 A2998 RMK A01 T02980134  RH  036%=      5-min Rain = 0
KGO1 162228Z 16014KT 31/14 A2998 RMK A01 T03050135  RH  035%=      5-min Rain = 0
KGO1 162229Z 16016KT 31/13 A2998 RMK A01 T03060133  RH  035%=      5-min Rain = 0
KGO1 162230Z 17016KT 30/13 A2998 RMK A01 T03030134  RH  036%=      5-min Rain = 0
KGO1 162231Z 19014KT 31/14 A2998 RMK A01 T03050136  RH  036%=      5-min Rain = 0
KGO1 162232Z 20015KT 30/13 A2998 RMK A01 T03040134  RH  035%=      5-min Rain = 0
KGO1 162233Z 20014KT 30/13 A2998 RMK A01 T03000132  RH  036%=      5-min Rain = 0
KGO1 162234Z 20013KT 30/13 A2999 RMK A01 T02970131  RH  036%=      5-min Rain = 0
KGO1 162235Z 20013KT 30/13 A2998 RMK A01 T02950132  RH  037%=      5-min Rain = 0
KGO1 162236Z 20010KT 30/13 A2998 RMK A01 T02950131  RH  037%=      5-min Rain = 0
KGO1 162237Z 20011KT 30/13 A2998 RMK A01 T02950131  RH  037%=      5-min Rain = 0
KGO1 162238Z 19015KT 30/13 A2998 RMK A01 T02970130  RH  036%=      5-min Rain = 0
KGO1 162239Z 19012KT 30/13 A2998 RMK A01 T02980128  RH  035%=      5-min Rain = 0
KGO1 162240Z 18009KT 30/13 A2998 RMK A01 T03000130  RH  035%=      5-min Rain = 0
KGO1 162241Z 17010KT 30/13 A2998 RMK A01 T02990130  RH  035%=      5-min Rain = 0
KGO1 162242Z 17014KT 30/13 A2998 RMK A01 T02990130  RH  035%=      5-min Rain = 0
KGO1 162243Z 17015KT 30/13 A2998 RMK A01 T03020130  RH  035%=      5-min Rain = 0
KGO1 162244Z 20014KT 31/13 A2998 RMK A01 T03050130  RH  034%=      5-min Rain = 0
KGO1 162245Z 19011KT 30/13 A2998 RMK A01 T03030129  RH  034%=      5-min Rain = 0
KGO1 162246Z 20013KT 30/13 A2998 RMK A01 T03010130  RH  035%=      5-min Rain = 0
KGO1 162247Z 20011KT 30/13 A2998 RMK A01 T03010131  RH  035%=      5-min Rain = 0
KGO1 162248Z 18012G17KT 30/13 A2998 RMK A01 T03000130  RH  035%=      5-min Rain = 0
KGO1 162249Z 16015KT 30/13 A2998 RMK A01 T03000129  RH  035%=      5-min Rain = 0
KGO1 162250Z 17014KT 30/13 A2998 RMK A01 T03010128  RH  035%=      5-min Rain = 0
KGO1 162251Z 17012KT 30/13 A2998 RMK A01 T02990127  RH  035%=      5-min Rain = 0
KGO1 162252Z 18015KT 30/13 A2998 RMK A01 T03000128  RH  035%=      5-min Rain = 0
KGO1 162253Z 17012KT 30/13 A2998 RMK A01 T03010128  RH  035%=      5-min Rain = 0
KGO1 162254Z 16009KT 30/13 A2998 RMK A01 T02990127  RH  035%=      5-min Rain = 0
KGO1 162255Z 16009KT 30/13 A2998 RMK A01 T02980127  RH  035%=      5-min Rain = 0
KGO1 162256Z 17016KT 30/13 A2998 RMK A01 T02980125  RH  035%=      5-min Rain = 0
KGO1 162257Z 18015KT 30/12 A2998 RMK A01 T03000124  RH  034%=      5-min Rain = 0
KGO1 162258Z 17014KT 30/12 A2998 RMK A01 T03000123  RH  034%=      5-min Rain = 0
KGO1 162259Z 18012KT 30/12 A2998 RMK A01 T03000123  RH  034%=      5-min Rain = 0
KGO1 162300Z 17014KT 30/12 A2998 RMK A01 T02990123  RH  034%=      5-min Rain = 0
KGO1 162301Z 18012KT 30/12 A2998 RMK A01 T02990123  RH  034%=      5-min Rain = 0
KGO1 162302Z 17014KT 30/12 A2998 RMK A01 T03000124  RH  034%=      5-min Rain = 0
KGO1 162303Z 17012KT 30/12 A2998 RMK A01 T03000123  RH  034%=      5-min Rain = 0
KGO1 162304Z 16013KT 30/12 A2997 RMK A01 T02990123  RH  034%=      5-min Rain = 0
KGO1 162305Z 17012KT 30/12 A2997 RMK A01 T02970122  RH  034%=      5-min Rain = 0
KGO1 162306Z 17012KT 30/12 A2997 RMK A01 T02970123  RH  034%=      5-min Rain = 0
KGO1 162307Z 17012KT 30/12 A2997 RMK A01 T02980123  RH  034%=      5-min Rain = 0
KGO1 162308Z 18012KT 30/12 A2997 RMK A01 T03000123  RH  034%=      5-min Rain = 0
KGO1 162309Z 18011KT 30/12 A2998 RMK A01 T03010122  RH  033%=      5-min Rain = 0
KGO1 162310Z 18010KT 30/12 A2998 RMK A01 T02980121  RH  033%=      5-min Rain = 0
KGO1 162311Z 18012KT 30/12 A2998 RMK A01 T02980121  RH  034%=      5-min Rain = 0
KGO1 162312Z 19009KT 30/12 A2998 RMK A01 T02980118  RH  033%=      5-min Rain = 0
KGO1 162313Z 18010KT 30/12 A2998 RMK A01 T02950118  RH  033%=      5-min Rain = 0
KGO1 162314Z 18009KT 29/12 A2998 RMK A01 T02920118  RH  034%=      5-min Rain = 0
KGO1 162315Z 17009KT 29/12 A2998 RMK A01 T02890118  RH  035%=      5-min Rain = 0
KGO1 162316Z 16013KT 29/12 A2997 RMK A01 T02890118  RH  035%=      5-min Rain = 0
KGO1 162317Z 17011KT 29/12 A2997 RMK A01 T02920119  RH  034%=      5-min Rain = 0
KGO1 162318Z 17013KT 30/12 A2997 RMK A01 T02960118  RH  033%=      5-min Rain = 0
KGO1 162319Z 16016G24KT 30/12 A2997 RMK A01 T02970118  RH  033%=      5-min Rain = 0
KGO1 162320Z 19014G23KT 30/12 A2997 RMK A01 T02990119  RH  033%=      5-min Rain = 0
KGO1 162321Z 18014KT 30/12 A2997 RMK A01 T03000117  RH  032%=      5-min Rain = 0
KGO1 162322Z 17015G20KT 30/12 A2997 RMK A01 T03000116  RH  032%=      5-min Rain = 0
KGO1 162323Z 17013KT 30/12 A2997 RMK A01 T02990116  RH  032%=      5-min Rain = 0
KGO1 162324Z 16014KT 30/12 A2997 RMK A01 T03000116  RH  032%=      5-min Rain = 0
KGO1 162325Z 15011KT 30/12 A2997 RMK A01 T03000115  RH  032%=      5-min Rain = 0
KGO1 162326Z 15010KT 30/12 A2997 RMK A01 T02980115  RH  032%=      5-min Rain = 0
KGO1 162327Z 16011KT 30/12 A2997 RMK A01 T02990117  RH  033%=      5-min Rain = 0
KGO1 162328Z 19011KT 30/12 A2997 RMK A01 T03040121  RH  033%=      5-min Rain = 0
KGO1 162329Z 20014KT 31/12 A2997 RMK A01 T03050122  RH  032%=      5-min Rain = 0
KGO1 162330Z 20012KT 30/12 A2997 RMK A01 T03020120  RH  033%=      5-min Rain = 0
KGO1 162331Z 18011KT 30/12 A2997 RMK A01 T03000119  RH  033%=      5-min Rain = 0
KGO1 162332Z 18013KT 30/12 A2997 RMK A01 T03000118  RH  033%=      5-min Rain = 0
KGO1 162333Z 19013KT 30/12 A2997 RMK A01 T02990119  RH  033%=      5-min Rain = 0
KGO1 162334Z 18011KT 30/12 A2997 RMK A01 T02970119  RH  033%=      5-min Rain = 0
KGO1 162335Z 17012KT 30/12 A2997 RMK A01 T02960118  RH  033%=      5-min Rain = 0
KGO1 162336Z 16013KT 30/12 A2997 RMK A01 T02960116  RH  033%=      5-min Rain = 0
KGO1 162337Z 16012KT 30/12 A2997 RMK A01 T02980116  RH  033%=      5-min Rain = 0
KGO1 162338Z 15011KT 30/12 A2997 RMK A01 T02980116  RH  032%=      5-min Rain = 0
KGO1 162339Z 16012KT 30/11 A2997 RMK A01 T02980114  RH  032%=      5-min Rain = 0
KGO1 162340Z 17013KT 30/11 A2997 RMK A01 T02960114  RH  032%=      5-min Rain = 0
KGO1 162341Z 18016KT 30/12 A2997 RMK A01 T02980116  RH  032%=      5-min Rain = 0
KGO1 162342Z 16015KT 30/12 A2997 RMK A01 T02990115  RH  032%=      5-min Rain = 0
KGO1 162343Z 15013KT 30/12 A2997 RMK A01 T03000116  RH  032%=      5-min Rain = 0
KGO1 162344Z 16015KT 30/12 A2997 RMK A01 T03010115  RH  032%=      5-min Rain = 0
KGO1 162345Z 15014KT 30/11 A2997 RMK A01 T03000114  RH  032%=      5-min Rain = 0
KGO1 162346Z 16012KT 30/11 A2997 RMK A01 T02970113  RH  032%=      5-min Rain = 0
KGO1 162347Z 16011KT 30/11 A2997 RMK A01 T02970114  RH  032%=      5-min Rain = 0
KGO1 162348Z 14010KT 30/12 A2997 RMK A01 T03000116  RH  032%=      5-min Rain = 0
KGO1 162349Z 15011KT 30/12 A2997 RMK A01 T03020115  RH  032%=      5-min Rain = 0
KGO1 162350Z 14010KT 30/11 A2997 RMK A01 T03010114  RH  032%=      5-min Rain = 0
KGO1 162351Z 14009KT 30/11 A2996 RMK A01 T02990114  RH  032%=      5-min Rain = 0
KGO1 162352Z 17009KT 30/11 A2996 RMK A01 T02980114  RH  032%=      5-min Rain = 0
KGO1 162353Z 16009G14KT 30/12 A2996 RMK A01 T02980115  RH  032%=      5-min Rain = 0
KGO1 162354Z 16011KT 30/12 A2996 RMK A01 T02990117  RH  033%=      5-min Rain = 0
KGO1 162355Z 15010KT 30/12 A2996 RMK A01 T02990118  RH  033%=      5-min Rain = 0
KGO1 162356Z 16012KT 30/12 A2996 RMK A01 T03010118  RH  032%=      5-min Rain = 0
KGO1 162357Z 18011KT 30/12 A2996 RMK A01 T03010119  RH  033%=      5-min Rain = 0
KGO1 162358Z 17011KT 30/12 A2996 RMK A01 T03000120  RH  033%=      5-min Rain = 0
KGO1 162359Z 18011KT 30/12 A2996 RMK A01 T03000121  RH  033%=      5-min Rain = 0
KGO1 170000Z 17013KT 30/12 A2996 RMK A01 T03010117  RH  032%=      5-min Rain = 0
KGO1 170001Z 17016KT 30/12 A2996 RMK A01 T03010115  RH  032%=      5-min Rain = 0
KGO1 170002Z 17015KT 30/12 A2996 RMK A01 T02990115  RH  032%=      5-min Rain = 0
KGO1 170003Z 16013KT 30/12 A2996 RMK A01 T02980116  RH  033%=      5-min Rain = 0
KGO1 170004Z 16013KT 30/12 A2996 RMK A01 T02990116  RH  032%=      5-min Rain = 0
KGO1 170005Z 16014KT 30/12 A2996 RMK A01 T02980115  RH  032%=      5-min Rain = 0
KGO1 170006Z 16014KT 30/12 A2996 RMK A01 T02950115  RH  033%=      5-min Rain = 0
KGO1 170007Z 16011KT 29/12 A2996 RMK A01 T02940115  RH  033%=      5-min Rain = 0
KGO1 170008Z 14014KT 29/12 A2996 RMK A01 T02930115  RH  033%=      5-min Rain = 0
KGO1 170009Z 16017G22KT 29/12 A2996 RMK A01 T02930115  RH  033%=      5-min Rain = 0
KGO1 170010Z 15016G21KT 30/12 A2996 RMK A01 T02950115  RH  033%=      5-min Rain = 0
KGO1 170011Z 14015KT 29/12 A2996 RMK A01 T02940115  RH  033%=      5-min Rain = 0
KGO1 170012Z 14015KT 29/11 A2996 RMK A01 T02940114  RH  033%=      5-min Rain = 0
KGO1 170013Z 13015KT 29/12 A2996 RMK A01 T02930115  RH  033%=      5-min Rain = 0
KGO1 170014Z 14013KT 29/11 A2996 RMK A01 T02910114  RH  033%=      5-min Rain = 0
KGO1 170015Z 13013KT 29/12 A2996 RMK A01 T02910115  RH  034%=      5-min Rain = 0
KGO1 170016Z 13017KT 29/12 A2996 RMK A01 T02910115  RH  034%=      5-min Rain = 0
KGO1 170017Z 14015KT 29/12 A2996 RMK A01 T02900115  RH  034%=      5-min Rain = 0
KGO1 170018Z 14011KT 29/12 A2996 RMK A01 T02900115  RH  034%=      5-min Rain = 0
KGO1 170019Z 13013KT 29/12 A2996 RMK A01 T02900115  RH  034%=      5-min Rain = 0
KGO1 170020Z 14012KT 29/12 A2996 RMK A01 T02900115  RH  034%=      5-min Rain = 0
KGO1 170021Z 15015KT 29/12 A2996 RMK A01 T02910116  RH  034%=      5-min Rain = 0
KGO1 170022Z 15013KT 29/12 A2996 RMK A01 T02910116  RH  034%=      5-min Rain = 0
KGO1 170023Z 14015KT 29/12 A2996 RMK A01 T02910116  RH  034%=      5-min Rain = 0
KGO1 170024Z 15012KT 29/12 A2996 RMK A01 T02910116  RH  034%=      5-min Rain = 0
KGO1 170025Z 15014G19KT 29/12 A2996 RMK A01 T02910116  RH  034%=      5-min Rain = 0
KGO1 170026Z 15012KT 29/12 A2996 RMK A01 T02910116  RH  034%=      5-min Rain = 0
KGO1 170027Z 15015KT 29/12 A2996 RMK A01 T02910116  RH  034%=      5-min Rain = 0
KGO1 170028Z 15018KT 29/12 A2996 RMK A01 T02890116  RH  034%=      5-min Rain = 0
KGO1 170029Z 15017KT 29/12 A2996 RMK A01 T02870116  RH  035%=      5-min Rain = 0
KGO1 170030Z 14016KT 29/12 A2996 RMK A01 T02860116  RH  035%=      5-min Rain = 0
KGO1 170031Z 14015KT 29/12 A2996 RMK A01 T02860116  RH  035%=      5-min Rain = 0
KGO1 170032Z 15016KT 29/12 A2996 RMK A01 T02860117  RH  035%=      5-min Rain = 0
KGO1 170033Z 15017KT 29/12 A2996 RMK A01 T02850117  RH  035%=      5-min Rain = 0
KGO1 170034Z 15017KT 29/12 A2996 RMK A01 T02850118  RH  035%=      5-min Rain = 0
KGO1 170035Z 15018KT 29/12 A2996 RMK A01 T02850117  RH  036%=      5-min Rain = 0
KGO1 170036Z 16017KT 28/12 A2996 RMK A01 T02840118  RH  036%=      5-min Rain = 0
KGO1 170037Z 16016KT 28/12 A2996 RMK A01 T02840117  RH  036%=      5-min Rain = 0
KGO1 170038Z 16017KT 28/12 A2996 RMK A01 T02840118  RH  036%=      5-min Rain = 0
KGO1 170039Z 16016KT 28/12 A2996 RMK A01 T02830117  RH  036%=      5-min Rain = 0
KGO1 170040Z 15016KT 28/12 A2996 RMK A01 T02830117  RH  036%=      5-min Rain = 0
KGO1 170041Z 14015KT 28/12 A2996 RMK A01 T02830117  RH  036%=      5-min Rain = 0
KGO1 170042Z 14018KT 28/12 A2996 RMK A01 T02820116  RH  036%=      5-min Rain = 0
KGO1 170043Z 15017KT 28/12 A2996 RMK A01 T02820116  RH  036%=      5-min Rain = 0
KGO1 170044Z 15015KT 28/12 A2996 RMK A01 T02810116  RH  036%=      5-min Rain = 0
KGO1 170045Z 14017KT 28/12 A2996 RMK A01 T02810116  RH  036%=      5-min Rain = 0
KGO1 170046Z 14016KT 28/12 A2996 RMK A01 T02810115  RH  036%=      5-min Rain = 0
KGO1 170047Z 15015KT 28/12 A2996 RMK A01 T02800115  RH  036%=      5-min Rain = 0
KGO1 170048Z 14017KT 28/12 A2996 RMK A01 T02800115  RH  036%=      5-min Rain = 0
KGO1 170049Z 14017KT 28/12 A2996 RMK A01 T02800115  RH  036%=      5-min Rain = 0
KGO1 170050Z 14017KT 28/12 A2996 RMK A01 T02790115  RH  036%=      5-min Rain = 0
KGO1 170051Z 14016KT 28/11 A2996 RMK A01 T02790114  RH  036%=      5-min Rain = 0
KGO1 170052Z 14016KT 28/11 A2996 RMK A01 T02780114  RH  036%=      5-min Rain = 0
KGO1 170053Z 15014KT 28/12 A2996 RMK A01 T02780115  RH  036%=      5-min Rain = 0
KGO1 170054Z 15015KT 28/11 A2996 RMK A01 T02770114  RH  036%=      5-min Rain = 0
KGO1 170055Z 14016KT 28/11 A2996 RMK A01 T02770114  RH  036%=      5-min Rain = 0
KGO1 170056Z 15016G21KT 28/11 A2996 RMK A01 T02770114  RH  036%=      5-min Rain = 0
KGO1 170057Z 14017KT 28/11 A2996 RMK A01 T02770114  RH  036%=      5-min Rain = 0
KGO1 170058Z 14016KT 28/11 A2996 RMK A01 T02760114  RH  036%=      5-min Rain = 0
KGO1 170059Z 15017KT 28/11 A2996 RMK A01 T02760114  RH  036%=      5-min Rain = 0
KGO1 170100Z 14016KT 28/11 A2996 RMK A01 T02760114  RH  036%=      5-min Rain = 0
KGO1 170101Z 14013KT 28/11 A2996 RMK A01 T02750114  RH  037%=      5-min Rain = 0
KGO1 170102Z 14013KT 28/11 A2996 RMK A01 T02750114  RH  037%=      5-min Rain = 0
KGO1 170103Z 14015KT 28/12 A2996 RMK A01 T02750115  RH  037%=      5-min Rain = 0
KGO1 170104Z 15014KT 27/11 A2996 RMK A01 T02740114  RH  037%=      5-min Rain = 0
KGO1 170105Z 15014KT 27/11 A2996 RMK A01 T02740114  RH  037%=      5-min Rain = 0
KGO1 170106Z 14017KT 27/11 A2996 RMK A01 T02740114  RH  037%=      5-min Rain = 0
KGO1 170107Z 15015KT 27/11 A2996 RMK A01 T02730113  RH  037%=      5-min Rain = 0
KGO1 170108Z 15014KT 27/11 A2996 RMK A01 T02730114  RH  037%=      5-min Rain = 0
KGO1 170109Z 15015KT 27/11 A2996 RMK A01 T02720113  RH  037%=      5-min Rain = 0
KGO1 170110Z 14014KT 27/11 A2996 RMK A01 T02720113  RH  037%=      5-min Rain = 0
KGO1 170111Z 14016KT 27/11 A2996 RMK A01 T02720113  RH  037%=      5-min Rain = 0
KGO1 170112Z 14014KT 27/11 A2996 RMK A01 T02710113  RH  037%=      5-min Rain = 0
KGO1 170113Z 14018KT 27/11 A2996 RMK A01 T02710112  RH  037%=      5-min Rain = 0
KGO1 170114Z 15014KT 27/11 A2996 RMK A01 T02710112  RH  037%=      5-min Rain = 0
KGO1 170115Z 15014KT 27/11 A2996 RMK A01 T02710112  RH  037%=      5-min Rain = 0
KGO1 170116Z 15015KT 27/11 A2996 RMK A01 T02700112  RH  037%=      5-min Rain = 0
KGO1 170117Z 15016KT 27/11 A2996 RMK A01 T02700111  RH  037%=      5-min Rain = 0
KGO1 170118Z 15016KT 27/11 A2996 RMK A01 T02700111  RH  037%=      5-min Rain = 0
KGO1 170119Z 15015KT 27/11 A2996 RMK A01 T02700111  RH  037%=      5-min Rain = 0
KGO1 170120Z 15016KT 27/11 A2996 RMK A01 T02690111  RH  037%=      5-min Rain = 0
KGO1 170121Z 15014KT 27/11 A2996 RMK A01 T02690111  RH  037%=      5-min Rain = 0
KGO1 170122Z 15014KT 27/11 A2996 RMK A01 T02680111  RH  037%=      5-min Rain = 0
KGO1 170123Z 15015KT 27/11 A2996 RMK A01 T02680111  RH  037%=      5-min Rain = 0
KGO1 170124Z 15013KT 27/11 A2996 RMK A01 T02670111  RH  038%=      5-min Rain = 0
KGO1 170125Z 15012KT 27/11 A2996 RMK A01 T02670111  RH  038%=      5-min Rain = 0
KGO1 170126Z 15011KT 27/11 A2996 RMK A01 T02660111  RH  038%=      5-min Rain = 0
KGO1 170127Z 15012KT 27/11 A2997 RMK A01 T02660112  RH  038%=      5-min Rain = 0
KGO1 170128Z 15013KT 27/12 A2997 RMK A01 T02650116  RH  039%=      5-min Rain = 0
KGO1 170129Z 15014KT 26/12 A2997 RMK A01 T02640119  RH  040%=      5-min Rain = 0
KGO1 170130Z 14016KT 26/12 A2997 RMK A01 T02630124  RH  042%=      5-min Rain = 0
KGO1 170131Z 14015KT 26/13 A2997 RMK A01 T02630127  RH  043%=      5-min Rain = 0
KGO1 170132Z 13015KT 26/13 A2997 RMK A01 T02620134  RH  045%=      5-min Rain = 0
KGO1 170133Z 14012KT 26/13 A2997 RMK A01 T02600134  RH  046%=      5-min Rain = 0
KGO1 170134Z 13012KT 26/13 A2997 RMK A01 T02590134  RH  046%=      5-min Rain = 0
KGO1 170135Z 14012KT 26/13 A2997 RMK A01 T02580134  RH  046%=      5-min Rain = 0
KGO1 170136Z 14011KT 26/14 A2997 RMK A01 T02580135  RH  047%=      5-min Rain = 0
KGO1 170137Z 14013KT 26/14 A2997 RMK A01 T02570136  RH  047%=      5-min Rain = 0
KGO1 170138Z 14015KT 26/14 A2997 RMK A01 T02560138  RH  048%=      5-min Rain = 0
KGO1 170139Z 14015KT 26/14 A2997 RMK A01 T02560139  RH  048%=      5-min Rain = 0
KGO1 170140Z 15014KT 26/14 A2997 RMK A01 T02560139  RH  048%=      5-min Rain = 0
KGO1 170141Z 15014KT 26/14 A2997 RMK A01 T02560139  RH  048%=      5-min Rain = 0
KGO1 170142Z 14014KT 26/14 A2997 RMK A01 T02550139  RH  049%=      5-min Rain = 0
KGO1 170143Z 14013KT 26/14 A2997 RMK A01 T02550140  RH  049%=      5-min Rain = 0
KGO1 170144Z 15011KT 25/14 A2997 RMK A01 T02540139  RH  049%=      5-min Rain = 0
KGO1 170145Z 14012KT 25/14 A2997 RMK A01 T02530139  RH  049%=      5-min Rain = 0
KGO1 170146Z 14011KT 25/14 A2997 RMK A01 T02520139  RH  049%=      5-min Rain = 0
KGO1 170147Z 13011KT 25/14 A2998 RMK A01 T02520140  RH  050%=      5-min Rain = 0
KGO1 170148Z 13010KT 25/14 A2998 RMK A01 T02510140  RH  050%=      5-min Rain = 0
KGO1 170149Z 13011KT 25/14 A2998 RMK A01 T02500141  RH  051%=      5-min Rain = 0
KGO1 170150Z 13013KT 25/14 A2998 RMK A01 T02490142  RH  051%=      5-min Rain = 0
KGO1 170151Z 13014KT 25/14 A2998 RMK A01 T02480142  RH  052%=      5-min Rain = 0
KGO1 170152Z 13012KT 25/14 A2998 RMK A01 T02480142  RH  052%=      5-min Rain = 0
KGO1 170153Z 14011KT 25/14 A2998 RMK A01 T02480142  RH  052%=      5-min Rain = 0
KGO1 170154Z 13012KT 25/14 A2998 RMK A01 T02470141  RH  052%=      5-min Rain = 0
KGO1 170155Z 13012KT 25/14 A2998 RMK A01 T02470142  RH  052%=      5-min Rain = 0
KGO1 170156Z 13012KT 25/14 A2998 RMK A01 T02470142  RH  052%=      5-min Rain = 0
KGO1 170157Z 13012KT 25/14 A2998 RMK A01 T02460143  RH  052%=      5-min Rain = 0
KGO1 170158Z 13012KT 25/14 A2998 RMK A01 T02450142  RH  053%=      5-min Rain = 0
KGO1 170159Z 13011KT 24/14 A2998 RMK A01 T02440143  RH  053%=      5-min Rain = 0
KGO1 170200Z 13013KT 24/14 A2998 RMK A01 T02440143  RH  053%=      5-min Rain = 0
KGO1 170201Z 13014KT 24/14 A2998 RMK A01 T02430143  RH  054%=      5-min Rain = 0
KGO1 170202Z 13013KT 24/14 A2998 RMK A01 T02440144  RH  054%=      5-min Rain = 0
KGO1 170203Z 13011KT 24/14 A2998 RMK A01 T02440144  RH  054%=      5-min Rain = 0
KGO1 170204Z 13012KT 24/14 A2998 RMK A01 T02430143  RH  053%=      5-min Rain = 0
KGO1 170205Z 14013KT 24/14 A2998 RMK A01 T02420142  RH  054%=      5-min Rain = 0
KGO1 170206Z 14013KT 24/14 A2998 RMK A01 T02420143  RH  054%=      5-min Rain = 0
KGO1 170207Z 14014KT 24/14 A2998 RMK A01 T02420142  RH  053%=      5-min Rain = 0
KGO1 170208Z 14015KT 24/14 A2998 RMK A01 T02420141  RH  053%=      5-min Rain = 0
KGO1 170209Z 14014KT 24/14 A2998 RMK A01 T02420141  RH  053%=      5-min Rain = 0
KGO1 170210Z 13013KT 24/14 A2998 RMK A01 T02420142  RH  053%=      5-min Rain = 0
KGO1 170211Z 14013KT 24/14 A2998 RMK A01 T02420141  RH  053%=      5-min Rain = 0
KGO1 170212Z 14013KT 24/14 A2999 RMK A01 T02410141  RH  053%=      5-min Rain = 0
KGO1 170213Z 13011KT 24/14 A2999 RMK A01 T02410141  RH  054%=      5-min Rain = 0
KGO1 170214Z 14012KT 24/14 A2999 RMK A01 T02410141  RH  054%=      5-min Rain = 0
KGO1 170215Z 13012KT 24/14 A2999 RMK A01 T02400140  RH  054%=      5-min Rain = 0
KGO1 170216Z 13012KT 24/14 A2999 RMK A01 T02390141  RH  054%=      5-min Rain = 0
KGO1 170217Z 13013KT 24/14 A2999 RMK A01 T02380141  RH  055%=      5-min Rain = 0
KGO1 170218Z 13013KT 24/14 A2999 RMK A01 T02370141  RH  055%=      5-min Rain = 0
KGO1 170219Z 13012KT 24/14 A2999 RMK A01 T02370141  RH  055%=      5-min Rain = 0
KGO1 170220Z 13012KT 24/14 A2999 RMK A01 T02370141  RH  055%=      5-min Rain = 0
KGO1 170221Z 13011KT 24/14 A2999 RMK A01 T02370141  RH  055%=      5-min Rain = 0
KGO1 170222Z 13012KT 24/14 A2999 RMK A01 T02360141  RH  055%=      5-min Rain = 0
KGO1 170223Z 13016KT 24/14 A2999 RMK A01 T02360141  RH  055%=      5-min Rain = 0
KGO1 170224Z 13014KT 24/14 A2999 RMK A01 T02360141  RH  055%=      5-min Rain = 0
KGO1 170225Z 13013KT 24/14 A2999 RMK A01 T02360141  RH  055%=      5-min Rain = 0
KGO1 170226Z 13011KT 24/14 A2999 RMK A01 T02360141  RH  055%=      5-min Rain = 0
KGO1 170227Z 14013KT 23/14 A2999 RMK A01 T02340140  RH  055%=      5-min Rain = 0
KGO1 170228Z 13014KT 23/14 A2999 RMK A01 T02330139  RH  056%=      5-min Rain = 0
KGO1 170229Z 13014KT 23/14 A2999 RMK A01 T02340139  RH  055%=      5-min Rain = 0
KGO1 170230Z 14013KT 23/14 A2999 RMK A01 T02340139  RH  055%=      5-min Rain = 0
KGO1 170231Z 14013KT 23/14 A2999 RMK A01 T02340139  RH  055%=      5-min Rain = 0
KGO1 170232Z 14015KT 23/14 A2999 RMK A01 T02340138  RH  055%=      5-min Rain = 0
KGO1 170233Z 14014KT 23/14 A2999 RMK A01 T02340138  RH  055%=      5-min Rain = 0
KGO1 170234Z 14012KT 23/14 A2999 RMK A01 T02340138  RH  055%=      5-min Rain = 0
KGO1 170235Z 13012KT 23/14 A2999 RMK A01 T02330138  RH  055%=      5-min Rain = 0
KGO1 170236Z 13012KT 23/14 A2999 RMK A01 T02330138  RH  055%=      5-min Rain = 0
KGO1 170237Z 13012KT 23/14 A2999 RMK A01 T02320138  RH  056%=      5-min Rain = 0
KGO1 170238Z 13011KT 23/14 A2999 RMK A01 T02310138  RH  056%=      5-min Rain = 0
KGO1 170239Z 13012KT 23/14 A2999 RMK A01 T02300138  RH  056%=      5-min Rain = 0
KGO1 170240Z 13012KT 23/14 A2999 RMK A01 T02300138  RH  056%=      5-min Rain = 0
KGO1 170241Z 13013KT 23/14 A2999 RMK A01 T02290138  RH  056%=      5-min Rain = 0
KGO1 170242Z 13012KT 23/14 A2999 RMK A01 T02290138  RH  056%=      5-min Rain = 0
KGO1 170243Z 13013KT 23/14 A2999 RMK A01 T02290137  RH  056%=      5-min Rain = 0
KGO1 170244Z 13014KT 23/14 A2999 RMK A01 T02280137  RH  056%=      5-min Rain = 0
KGO1 170245Z 13013KT 23/14 A2999 RMK A01 T02280137  RH  056%=      5-min Rain = 0
KGO1 170246Z 13013KT 23/14 A2999 RMK A01 T02280137  RH  056%=      5-min Rain = 0
KGO1 170247Z 13013KT 23/14 A30 RMK A01 T02270136  RH  056%=      5-min Rain = 0
KGO1 170248Z 13013KT 23/14 A30 RMK A01 T02270136  RH  057%=      5-min Rain = 0
KGO1 170249Z 13013KT 23/14 A30 RMK A01 T02260136  RH  057%=      5-min Rain = 0
KGO1 170250Z 13012KT 23/14 A30 RMK A01 T02260136  RH  057%=      5-min Rain = 0
KGO1 170251Z 13013KT 23/14 A30 RMK A01 T02250136  RH  057%=      5-min Rain = 0
KGO1 170252Z 13011KT 23/14 A30 RMK A01 T02250136  RH  057%=      5-min Rain = 0
KGO1 170253Z 13012KT 22/14 A2999 RMK A01 T02240136  RH  057%=      5-min Rain = 0
KGO1 170254Z 13013KT 22/14 A2999 RMK A01 T02240136  RH  057%=      5-min Rain = 0
KGO1 170255Z 13013KT 22/14 A30 RMK A01 T02240136  RH  057%=      5-min Rain = 0
KGO1 170256Z 13012KT 22/14 A30 RMK A01 T02240135  RH  057%=      5-min Rain = 0
KGO1 170257Z 13013KT 22/14 A30 RMK A01 T02240136  RH  058%=      5-min Rain = 0
KGO1 170258Z 13012KT 22/14 A30 RMK A01 T02230136  RH  058%=      5-min Rain = 0
KGO1 170259Z 14013KT 22/14 A30 RMK A01 T02220136  RH  058%=      5-min Rain = 0
KGO1 170300Z 13012KT 22/14 A30 RMK A01 T02220136  RH  058%=      5-min Rain = 0
KGO1 170301Z 13012KT 22/14 A30 RMK A01 T02220135  RH  058%=      5-min Rain = 0
KGO1 170302Z 13012KT 22/14 A2999 RMK A01 T02220136  RH  058%=      5-min Rain = 0
KGO1 170303Z 14014KT 22/14 A2999 RMK A01 T02220135  RH  058%=      5-min Rain = 0
KGO1 170304Z 13013KT 22/14 A2999 RMK A01 T02230136  RH  058%=      5-min Rain = 0
KGO1 170305Z 14012KT 22/14 A2999 RMK A01 T02230135  RH  058%=      5-min Rain = 0
KGO1 170306Z 14013KT 22/14 A2999 RMK A01 T02220135  RH  058%=      5-min Rain = 0
KGO1 170307Z 14012KT 22/14 A2999 RMK A01 T02220135  RH  058%=      5-min Rain = 0
KGO1 170308Z 14013KT 22/14 A2999 RMK A01 T02220136  RH  058%=      5-min Rain = 0
KGO1 170309Z 14012KT 22/14 A2999 RMK A01 T02210136  RH  058%=      5-min Rain = 0
KGO1 170310Z 14012KT 22/14 A30 RMK A01 T02210136  RH  058%=      5-min Rain = 0
KGO1 170311Z 14011KT 22/14 A30 RMK A01 T02210136  RH  058%=      5-min Rain = 0
KGO1 170312Z 14013KT 22/14 A30 RMK A01 T02210135  RH  058%=      5-min Rain = 0
KGO1 170313Z 14012KT 22/14 A30 RMK A01 T02210136  RH  059%=      5-min Rain = 0
KGO1 170314Z 14013KT 22/14 A30 RMK A01 T02210136  RH  059%=      5-min Rain = 0
KGO1 170315Z 14013KT 22/14 A30 RMK A01 T02200136  RH  059%=      5-min Rain = 0
KGO1 170316Z 14011KT 22/14 A30 RMK A01 T02200136  RH  059%=      5-min Rain = 0
KGO1 170317Z 14011KT 22/14 A30 RMK A01 T02200136  RH  059%=      5-min Rain = 0
KGO1 170318Z 14011KT 22/14 A30 RMK A01 T02190136  RH  059%=      5-min Rain = 0
KGO1 170319Z 14011KT 22/14 A30 RMK A01 T02180136  RH  059%=      5-min Rain = 0
KGO1 170320Z 14011KT 22/14 A30 RMK A01 T02190137  RH  060%=      5-min Rain = 0
KGO1 170321Z 14011KT 22/14 A30 RMK A01 T02180136  RH  060%=      5-min Rain = 0
KGO1 170322Z 14011KT 22/14 A30 RMK A01 T02180136  RH  060%=      5-min Rain = 0
KGO1 170323Z 14011KT 22/14 A30 RMK A01 T02180137  RH  060%=      5-min Rain = 0
KGO1 170324Z 14011KT 22/14 A30 RMK A01 T02180137  RH  060%=      5-min Rain = 0
KGO1 170325Z 15012KT 22/14 A30 RMK A01 T02180137  RH  060%=      5-min Rain = 0
KGO1 170326Z 14011KT 22/14 A30 RMK A01 T02180137  RH  060%=      5-min Rain = 0
KGO1 170327Z 14013KT 22/14 A30 RMK A01 T02180138  RH  060%=      5-min Rain = 0
KGO1 170328Z 15011KT 22/14 A30 RMK A01 T02180138  RH  060%=      5-min Rain = 0
KGO1 170329Z 15012KT 22/14 A30 RMK A01 T02190138  RH  060%=      5-min Rain = 0
KGO1 170330Z 15011KT 22/14 A30 RMK A01 T02180138  RH  060%=      5-min Rain = 0
KGO1 170331Z 14011KT 22/14 A30 RMK A01 T02180138  RH  060%=      5-min Rain = 0
KGO1 170332Z 15011KT 22/14 A30 RMK A01 T02170138  RH  061%=      5-min Rain = 0
KGO1 170333Z 15010KT 22/14 A30 RMK A01 T02170138  RH  061%=      5-min Rain = 0
KGO1 170334Z 15011KT 22/14 A30 RMK A01 T02170138  RH  061%=      5-min Rain = 0
KGO1 170335Z 15012KT 22/14 A30 RMK A01 T02170138  RH  061%=      5-min Rain = 0
KGO1 170336Z 15011KT 22/14 A30 RMK A01 T02170139  RH  061%=      5-min Rain = 0
KGO1 170337Z 15010KT 22/14 A30 RMK A01 T02170138  RH  061%=      5-min Rain = 0
KGO1 170338Z 14010KT 22/14 A30 RMK A01 T02160138  RH  061%=      5-min Rain = 0
KGO1 170339Z 15010KT 22/14 A30 RMK A01 T02160139  RH  061%=      5-min Rain = 0
KGO1 170340Z 15011KT 22/14 A30 RMK A01 T02160138  RH  061%=      5-min Rain = 0
KGO1 170341Z 15011KT 22/14 A30 RMK A01 T02160138  RH  061%=      5-min Rain = 0
KGO1 170342Z 15010KT 22/14 A30 RMK A01 T02150139  RH  062%=      5-min Rain = 0
KGO1 170343Z 15010KT 22/14 A30 RMK A01 T02150139  RH  062%=      5-min Rain = 0
KGO1 170344Z 15010KT 22/14 A30 RMK A01 T02150138  RH  061%=      5-min Rain = 0
KGO1 170345Z 15010KT 22/14 A30 RMK A01 T02150138  RH  061%=      5-min Rain = 0
KGO1 170346Z 15010KT 22/14 A30 RMK A01 T02150139  RH  062%=      5-min Rain = 0
KGO1 170347Z 15009KT 21/14 A30 RMK A01 T02140138  RH  062%=      5-min Rain = 0
KGO1 170348Z 15009KT 21/14 A30 RMK A01 T02140138  RH  062%=      5-min Rain = 0
KGO1 170349Z 15010KT 21/14 A30 RMK A01 T02140138  RH  062%=      5-min Rain = 0
KGO1 170350Z 15010KT 21/14 A30 RMK A01 T02140138  RH  062%=      5-min Rain = 0
KGO1 170351Z 15009KT 21/14 A30 RMK A01 T02140138  RH  062%=      5-min Rain = 0
KGO1 170352Z 15010KT 21/14 A30 RMK A01 T02130137  RH  062%=      5-min Rain = 0
KGO1 170353Z 15009KT 21/14 A30 RMK A01 T02130137  RH  062%=      5-min Rain = 0
KGO1 170354Z 15009KT 21/14 A30 RMK A01 T02120137  RH  062%=      5-min Rain = 0
KGO1 170355Z 15010KT 21/14 A30 RMK A01 T02120137  RH  062%=      5-min Rain = 0
KGO1 170356Z 15008KT 21/14 A30 RMK A01 T02120136  RH  062%=      5-min Rain = 0
KGO1 170357Z 15009KT 21/14 A30 RMK A01 T02120135  RH  062%=      5-min Rain = 0
KGO1 170358Z 15009KT 21/14 A30 RMK A01 T02120136  RH  062%=      5-min Rain = 0
KGO1 170359Z 15009KT 21/14 A3001 RMK A01 T02110136  RH  062%=      5-min Rain = 0
KGO1 170400Z 15010KT 21/14 A3001 RMK A01 T02110136  RH  062%=      5-min Rain = 0
KGO1 170401Z 15009KT 21/14 A3001 RMK A01 T02110136  RH  062%=      5-min Rain = 0
KGO1 170402Z 14008KT 21/14 A3001 RMK A01 T02110136  RH  062%=      5-min Rain = 0
KGO1 170403Z 14008KT 21/14 A3001 RMK A01 T02100136  RH  062%=      5-min Rain = 0
KGO1 170404Z 14008KT 21/14 A3001 RMK A01 T02090135  RH  062%=      5-min Rain = 0
KGO1 170405Z 14008KT 21/14 A3001 RMK A01 T02090135  RH  063%=      5-min Rain = 0
KGO1 170406Z 14008KT 21/14 A3001 RMK A01 T02080135  RH  063%=      5-min Rain = 0
KGO1 170407Z 14008KT 21/14 A3001 RMK A01 T02080135  RH  063%=      5-min Rain = 0
KGO1 170408Z 14007KT 21/14 A3001 RMK A01 T02070135  RH  063%=      5-min Rain = 0
KGO1 170409Z 14007KT 21/13 A3001 RMK A01 T02060134  RH  063%=      5-min Rain = 0
KGO1 170410Z 14007KT 21/13 A3001 RMK A01 T02050134  RH  063%=      5-min Rain = 0
KGO1 170411Z 14007KT 20/13 A3001 RMK A01 T02040133  RH  064%=      5-min Rain = 0
KGO1 170412Z 14007KT 21/13 A3001 RMK A01 T02050134  RH  064%=      5-min Rain = 0
KGO1 170413Z 14008KT 21/13 A3001 RMK A01 T02050134  RH  064%=      5-min Rain = 0
KGO1 170414Z 14009KT 21/13 A3001 RMK A01 T02050134  RH  064%=      5-min Rain = 0
KGO1 170415Z 15009KT 21/13 A3001 RMK A01 T02060134  RH  063%=      5-min Rain = 0
KGO1 170416Z 15009KT 21/13 A3001 RMK A01 T02070134  RH  063%=      5-min Rain = 0
KGO1 170417Z 15009KT 21/13 A3001 RMK A01 T02070134  RH  063%=      5-min Rain = 0
KGO1 170418Z 15009KT 21/13 A3001 RMK A01 T02070134  RH  063%=      5-min Rain = 0
KGO1 170419Z 15010KT 21/13 A3001 RMK A01 T02070134  RH  063%=      5-min Rain = 0
KGO1 170420Z 15011KT 21/13 A3001 RMK A01 T02070134  RH  063%=      5-min Rain = 0
KGO1 170421Z 15011KT 21/13 A3001 RMK A01 T02080134  RH  062%=      5-min Rain = 0
KGO1 170422Z 15010KT 21/13 A3001 RMK A01 T02080134  RH  062%=      5-min Rain = 0
KGO1 170423Z 15011KT 21/13 A3001 RMK A01 T02080134  RH  062%=      5-min Rain = 0
KGO1 170424Z 16011KT 21/13 A3001 RMK A01 T02080134  RH  063%=      5-min Rain = 0
KGO1 170425Z 15011KT 21/13 A3001 RMK A01 T02080134  RH  063%=      5-min Rain = 0
KGO1 170426Z 15010KT 21/13 A3001 RMK A01 T02070134  RH  063%=      5-min Rain = 0
KGO1 170427Z 15010KT 21/13 A3001 RMK A01 T02070134  RH  063%=      5-min Rain = 0
KGO1 170428Z 15009KT 21/13 A3001 RMK A01 T02070133  RH  063%=      5-min Rain = 0
KGO1 170429Z 15009KT 21/13 A3002 RMK A01 T02070133  RH  063%=      5-min Rain = 0
KGO1 170430Z 14009KT 21/13 A3002 RMK A01 T02070133  RH  063%=      5-min Rain = 0
KGO1 170431Z 15009KT 21/13 A3002 RMK A01 T02060133  RH  063%=      5-min Rain = 0
KGO1 170432Z 15009KT 21/13 A3002 RMK A01 T02060134  RH  063%=      5-min Rain = 0
KGO1 170433Z 14009KT 21/13 A3002 RMK A01 T02050133  RH  063%=      5-min Rain = 0
KGO1 170434Z 14009KT 21/13 A3002 RMK A01 T02050133  RH  064%=      5-min Rain = 0
KGO1 170435Z 15009KT 21/13 A3002 RMK A01 T02050133  RH  064%=      5-min Rain = 0
KGO1 170436Z 15010KT 20/13 A3002 RMK A01 T02040134  RH  064%=      5-min Rain = 0
KGO1 170437Z 14010KT 21/13 A3002 RMK A01 T02050134  RH  064%=      5-min Rain = 0
KGO1 170438Z 15011KT 20/13 A3002 RMK A01 T02040134  RH  064%=      5-min Rain = 0
KGO1 170439Z 14011KT 20/14 A3002 RMK A01 T02040135  RH  064%=      5-min Rain = 0
KGO1 170440Z 14010KT 21/14 A3002 RMK A01 T02050135  RH  064%=      5-min Rain = 0
KGO1 170441Z 15010KT 21/14 A3002 RMK A01 T02050135  RH  064%=      5-min Rain = 0
KGO1 170442Z 15011KT 21/14 A3002 RMK A01 T02050135  RH  064%=      5-min Rain = 0
KGO1 170443Z 15011KT 21/14 A3002 RMK A01 T02060136  RH  064%=      5-min Rain = 0
KGO1 170444Z 15011KT 21/14 A3002 RMK A01 T02050136  RH  064%=      5-min Rain = 0
KGO1 170445Z 15011KT 21/14 A3002 RMK A01 T02050136  RH  064%=      5-min Rain = 0
KGO1 170446Z 15012KT 21/14 A3001 RMK A01 T02050136  RH  064%=      5-min Rain = 0
KGO1 170447Z 15014KT 21/14 A3001 RMK A01 T02050137  RH  065%=      5-min Rain = 0
KGO1 170448Z 15014KT 21/14 A3001 RMK A01 T02060138  RH  065%=      5-min Rain = 0
KGO1 170449Z 15013KT 21/14 A3001 RMK A01 T02070138  RH  065%=      5-min Rain = 0
KGO1 170450Z 15013KT 21/14 A3001 RMK A01 T02070138  RH  065%=      5-min Rain = 0
KGO1 170451Z 16014KT 21/14 A3001 RMK A01 T02060138  RH  065%=      5-min Rain = 0
KGO1 170452Z 16013KT 21/14 A3001 RMK A01 T02060139  RH  065%=      5-min Rain = 0
KGO1 170453Z 16014KT 21/14 A3001 RMK A01 T02060139  RH  065%=      5-min Rain = 0
KGO1 170454Z 16012KT 21/14 A3001 RMK A01 T02060139  RH  065%=      5-min Rain = 0
KGO1 170455Z 16013KT 21/14 A3001 RMK A01 T02060139  RH  065%=      5-min Rain = 0
KGO1 170456Z 16013KT 21/14 A3001 RMK A01 T02060139  RH  066%=      5-min Rain = 0
KGO1 170457Z 16013KT 21/14 A3001 RMK A01 T02050140  RH  066%=      5-min Rain = 0
KGO1 170458Z 16013KT 21/14 A3001 RMK A01 T02050139  RH  066%=      5-min Rain = 0
KGO1 170459Z 16013KT 21/14 A3001 RMK A01 T02050140  RH  066%=      5-min Rain = 0

Page generated in 0.0711 seconds.